<?xml version="1.0" encoding="UTF-8" standalone="no" ?>
<gpx xmlns="http://www.topografix.com/GPX/1/1" xmlns:xsi="http://www.w3.org/2001/XMLSchema-instance" xsi:schemaLocation="http://www.topografix.com/GPX/1/1 http://www.topografix.com/GPX/1/1/gpx.xsd" version="1.1" creator="VisuGPX - https://www.visugpx.com">
  <metadata>
    <name>Vacances 2021</name>
  </metadata>
  <trk>
    <name><![CDATA[Journal actif: 2021-07-29 09:41]]></name>
    <trkseg>
      <trkpt lat="49.41819" lon="3.00904">
        <ele>42.44</ele>
        <time>2021-07-29T11:41:45Z</time>
      </trkpt>
      <trkpt lat="49.41819" lon="3.00902">
        <ele>41.95</ele>
        <time>2021-07-29T11:42:10Z</time>
      </trkpt>
      <trkpt lat="49.41818" lon="3.00901">
        <ele>41.47</ele>
        <time>2021-07-29T11:42:34Z</time>
      </trkpt>
      <trkpt lat="49.41818" lon="3.00899">
        <ele>40.99</ele>
        <time>2021-07-29T11:42:54Z</time>
      </trkpt>
      <trkpt lat="49.41817" lon="3.00897">
        <ele>41.47</ele>
        <time>2021-07-29T11:45:12Z</time>
      </trkpt>
      <trkpt lat="49.41818" lon="3.00905">
        <ele>41.95</ele>
        <time>2021-07-29T11:45:46Z</time>
      </trkpt>
      <trkpt lat="49.41818" lon="3.00908">
        <ele>41.95</ele>
        <time>2021-07-29T11:46:05Z</time>
      </trkpt>
      <trkpt lat="49.41838" lon="3.00876">
        <ele>43.4</ele>
        <time>2021-07-29T11:46:19Z</time>
      </trkpt>
      <trkpt lat="49.4184" lon="3.00877">
        <ele>44.84</ele>
        <time>2021-07-29T11:46:28Z</time>
      </trkpt>
      <trkpt lat="49.41837" lon="3.00876">
        <ele>45.32</ele>
        <time>2021-07-29T11:46:31Z</time>
      </trkpt>
      <trkpt lat="49.41836" lon="3.00877">
        <ele>45.32</ele>
        <time>2021-07-29T11:46:32Z</time>
      </trkpt>
      <trkpt lat="49.41833" lon="3.00877">
        <ele>45.32</ele>
        <time>2021-07-29T11:46:33Z</time>
      </trkpt>
      <trkpt lat="49.41829" lon="3.00878">
        <ele>45.32</ele>
        <time>2021-07-29T11:46:34Z</time>
      </trkpt>
      <trkpt lat="49.41752" lon="3.00898">
        <ele>45.32</ele>
        <time>2021-07-29T11:46:47Z</time>
      </trkpt>
      <trkpt lat="49.41653" lon="3.00885">
        <ele>41.47</ele>
        <time>2021-07-29T11:47:01Z</time>
      </trkpt>
      <trkpt lat="49.41519" lon="3.00844">
        <ele>37.15</ele>
        <time>2021-07-29T11:47:17Z</time>
      </trkpt>
      <trkpt lat="49.41479" lon="3.00844">
        <ele>36.67</ele>
        <time>2021-07-29T11:47:26Z</time>
      </trkpt>
      <trkpt lat="49.41468" lon="3.00847">
        <ele>38.59</ele>
        <time>2021-07-29T11:47:33Z</time>
      </trkpt>
      <trkpt lat="49.41468" lon="3.00849">
        <ele>38.59</ele>
        <time>2021-07-29T11:47:34Z</time>
      </trkpt>
      <trkpt lat="49.41466" lon="3.00855">
        <ele>38.59</ele>
        <time>2021-07-29T11:47:35Z</time>
      </trkpt>
      <trkpt lat="49.41463" lon="3.00868">
        <ele>38.59</ele>
        <time>2021-07-29T11:47:36Z</time>
      </trkpt>
      <trkpt lat="49.41457" lon="3.00891">
        <ele>37.63</ele>
        <time>2021-07-29T11:47:40Z</time>
      </trkpt>
      <trkpt lat="49.41454" lon="3.00904">
        <ele>37.15</ele>
        <time>2021-07-29T11:47:41Z</time>
      </trkpt>
      <trkpt lat="49.41454" lon="3.00904">
        <ele>37.15</ele>
        <time>2021-07-29T11:47:42Z</time>
      </trkpt>
      <trkpt lat="49.41444" lon="3.00905">
        <ele>37.15</ele>
        <time>2021-07-29T11:47:43Z</time>
      </trkpt>
      <trkpt lat="49.41441" lon="3.00905">
        <ele>37.63</ele>
        <time>2021-07-29T11:47:44Z</time>
      </trkpt>
      <trkpt lat="49.41436" lon="3.00904">
        <ele>37.63</ele>
        <time>2021-07-29T11:47:45Z</time>
      </trkpt>
      <trkpt lat="49.41436" lon="3.00904">
        <ele>37.63</ele>
        <time>2021-07-29T11:47:46Z</time>
      </trkpt>
      <trkpt lat="49.41427" lon="3.00901">
        <ele>37.15</ele>
        <time>2021-07-29T11:47:47Z</time>
      </trkpt>
      <trkpt lat="49.41427" lon="3.00901">
        <ele>37.15</ele>
        <time>2021-07-29T11:47:48Z</time>
      </trkpt>
      <trkpt lat="49.41334" lon="3.00868">
        <ele>34.74</ele>
        <time>2021-07-29T11:48:01Z</time>
      </trkpt>
      <trkpt lat="49.41291" lon="3.0085">
        <ele>34.26</ele>
        <time>2021-07-29T11:48:06Z</time>
      </trkpt>
      <trkpt lat="49.41282" lon="3.00846">
        <ele>34.74</ele>
        <time>2021-07-29T11:48:07Z</time>
      </trkpt>
      <trkpt lat="49.41273" lon="3.00843">
        <ele>34.74</ele>
        <time>2021-07-29T11:48:08Z</time>
      </trkpt>
      <trkpt lat="49.41265" lon="3.00839">
        <ele>34.74</ele>
        <time>2021-07-29T11:48:09Z</time>
      </trkpt>
      <trkpt lat="49.41257" lon="3.0084">
        <ele>34.26</ele>
        <time>2021-07-29T11:48:10Z</time>
      </trkpt>
      <trkpt lat="49.41249" lon="3.00842">
        <ele>33.78</ele>
        <time>2021-07-29T11:48:11Z</time>
      </trkpt>
      <trkpt lat="49.41117" lon="3.00852">
        <ele>33.3</ele>
        <time>2021-07-29T11:48:25Z</time>
      </trkpt>
      <trkpt lat="49.41054" lon="3.00841">
        <ele>32.34</ele>
        <time>2021-07-29T11:48:32Z</time>
      </trkpt>
      <trkpt lat="49.40964" lon="3.00827">
        <ele>32.34</ele>
        <time>2021-07-29T11:48:41Z</time>
      </trkpt>
      <trkpt lat="49.40823" lon="3.00779">
        <ele>33.78</ele>
        <time>2021-07-29T11:48:53Z</time>
      </trkpt>
      <trkpt lat="49.40759" lon="3.0077">
        <ele>33.3</ele>
        <time>2021-07-29T11:49:01Z</time>
      </trkpt>
      <trkpt lat="49.40662" lon="3.00774">
        <ele>30.9</ele>
        <time>2021-07-29T11:49:15Z</time>
      </trkpt>
      <trkpt lat="49.40633" lon="3.00774">
        <ele>29.46</ele>
        <time>2021-07-29T11:49:18Z</time>
      </trkpt>
      <trkpt lat="49.40623" lon="3.0077">
        <ele>29.94</ele>
        <time>2021-07-29T11:49:19Z</time>
      </trkpt>
      <trkpt lat="49.40615" lon="3.00768">
        <ele>29.46</ele>
        <time>2021-07-29T11:49:20Z</time>
      </trkpt>
      <trkpt lat="49.40606" lon="3.00762">
        <ele>28.98</ele>
        <time>2021-07-29T11:49:21Z</time>
      </trkpt>
      <trkpt lat="49.40596" lon="3.00752">
        <ele>29.46</ele>
        <time>2021-07-29T11:49:22Z</time>
      </trkpt>
      <trkpt lat="49.40589" lon="3.00741">
        <ele>29.94</ele>
        <time>2021-07-29T11:49:23Z</time>
      </trkpt>
      <trkpt lat="49.40583" lon="3.00727">
        <ele>30.42</ele>
        <time>2021-07-29T11:49:24Z</time>
      </trkpt>
      <trkpt lat="49.40543" lon="3.00616">
        <ele>29.94</ele>
        <time>2021-07-29T11:49:31Z</time>
      </trkpt>
      <trkpt lat="49.40539" lon="3.006">
        <ele>29.46</ele>
        <time>2021-07-29T11:49:32Z</time>
      </trkpt>
      <trkpt lat="49.40533" lon="3.00572">
        <ele>29.46</ele>
        <time>2021-07-29T11:49:34Z</time>
      </trkpt>
      <trkpt lat="49.4053" lon="3.00561">
        <ele>29.94</ele>
        <time>2021-07-29T11:49:35Z</time>
      </trkpt>
      <trkpt lat="49.40528" lon="3.00551">
        <ele>29.94</ele>
        <time>2021-07-29T11:49:36Z</time>
      </trkpt>
      <trkpt lat="49.40524" lon="3.00547">
        <ele>30.42</ele>
        <time>2021-07-29T11:49:37Z</time>
      </trkpt>
      <trkpt lat="49.40518" lon="3.00541">
        <ele>30.42</ele>
        <time>2021-07-29T11:49:38Z</time>
      </trkpt>
      <trkpt lat="49.40514" lon="3.00537">
        <ele>30.42</ele>
        <time>2021-07-29T11:49:39Z</time>
      </trkpt>
      <trkpt lat="49.4051" lon="3.00535">
        <ele>30.9</ele>
        <time>2021-07-29T11:49:40Z</time>
      </trkpt>
      <trkpt lat="49.40444" lon="3.00508">
        <ele>29.46</ele>
        <time>2021-07-29T11:49:53Z</time>
      </trkpt>
      <trkpt lat="49.40439" lon="3.00505">
        <ele>29.94</ele>
        <time>2021-07-29T11:50:03Z</time>
      </trkpt>
      <trkpt lat="49.40423" lon="3.00497">
        <ele>29.94</ele>
        <time>2021-07-29T11:50:23Z</time>
      </trkpt>
      <trkpt lat="49.40418" lon="3.00487">
        <ele>29.94</ele>
        <time>2021-07-29T11:50:24Z</time>
      </trkpt>
      <trkpt lat="49.40419" lon="3.00482">
        <ele>29.94</ele>
        <time>2021-07-29T11:50:25Z</time>
      </trkpt>
      <trkpt lat="49.40419" lon="3.00482">
        <ele>29.94</ele>
        <time>2021-07-29T11:50:26Z</time>
      </trkpt>
      <trkpt lat="49.4042" lon="3.00477">
        <ele>29.94</ele>
        <time>2021-07-29T11:50:27Z</time>
      </trkpt>
      <trkpt lat="49.4043" lon="3.00432">
        <ele>29.94</ele>
        <time>2021-07-29T11:50:39Z</time>
      </trkpt>
      <trkpt lat="49.4043" lon="3.00432">
        <ele>30.9</ele>
        <time>2021-07-29T11:56:03Z</time>
      </trkpt>
      <trkpt lat="49.4043" lon="3.00432">
        <ele>30.9</ele>
        <time>2021-07-29T11:56:08Z</time>
      </trkpt>
      <trkpt lat="49.4043" lon="3.00429">
        <ele>30.9</ele>
        <time>2021-07-29T11:56:09Z</time>
      </trkpt>
      <trkpt lat="49.4043" lon="3.00427">
        <ele>30.9</ele>
        <time>2021-07-29T11:56:10Z</time>
      </trkpt>
      <trkpt lat="49.40431" lon="3.00424">
        <ele>30.9</ele>
        <time>2021-07-29T11:56:11Z</time>
      </trkpt>
      <trkpt lat="49.40432" lon="3.0042">
        <ele>30.9</ele>
        <time>2021-07-29T11:56:12Z</time>
      </trkpt>
      <trkpt lat="49.40433" lon="3.00415">
        <ele>30.9</ele>
        <time>2021-07-29T11:56:13Z</time>
      </trkpt>
      <trkpt lat="49.40433" lon="3.0041">
        <ele>30.42</ele>
        <time>2021-07-29T11:56:14Z</time>
      </trkpt>
      <trkpt lat="49.4044" lon="3.00376">
        <ele>30.9</ele>
        <time>2021-07-29T11:56:19Z</time>
      </trkpt>
      <trkpt lat="49.40441" lon="3.00368">
        <ele>30.9</ele>
        <time>2021-07-29T11:56:20Z</time>
      </trkpt>
      <trkpt lat="49.40442" lon="3.00359">
        <ele>30.9</ele>
        <time>2021-07-29T11:56:21Z</time>
      </trkpt>
      <trkpt lat="49.40417" lon="3.00211">
        <ele>31.86</ele>
        <time>2021-07-29T11:56:34Z</time>
      </trkpt>
      <trkpt lat="49.40358" lon="2.99941">
        <ele>32.34</ele>
        <time>2021-07-29T11:56:53Z</time>
      </trkpt>
      <trkpt lat="49.40286" lon="2.996">
        <ele>32.82</ele>
        <time>2021-07-29T11:57:15Z</time>
      </trkpt>
      <trkpt lat="49.40242" lon="2.99372">
        <ele>32.82</ele>
        <time>2021-07-29T11:57:30Z</time>
      </trkpt>
      <trkpt lat="49.4024" lon="2.99364">
        <ele>32.82</ele>
        <time>2021-07-29T11:57:31Z</time>
      </trkpt>
      <trkpt lat="49.40242" lon="2.99347">
        <ele>33.3</ele>
        <time>2021-07-29T11:57:33Z</time>
      </trkpt>
      <trkpt lat="49.40244" lon="2.99335">
        <ele>33.3</ele>
        <time>2021-07-29T11:57:34Z</time>
      </trkpt>
      <trkpt lat="49.40243" lon="2.99328">
        <ele>33.3</ele>
        <time>2021-07-29T11:57:35Z</time>
      </trkpt>
      <trkpt lat="49.40229" lon="2.99316">
        <ele>33.3</ele>
        <time>2021-07-29T11:57:37Z</time>
      </trkpt>
      <trkpt lat="49.40226" lon="2.99306">
        <ele>33.3</ele>
        <time>2021-07-29T11:57:38Z</time>
      </trkpt>
      <trkpt lat="49.40223" lon="2.99295">
        <ele>33.78</ele>
        <time>2021-07-29T11:57:39Z</time>
      </trkpt>
      <trkpt lat="49.40183" lon="2.99107">
        <ele>39.07</ele>
        <time>2021-07-29T11:57:52Z</time>
      </trkpt>
      <trkpt lat="49.4016" lon="2.98916">
        <ele>39.55</ele>
        <time>2021-07-29T11:58:03Z</time>
      </trkpt>
      <trkpt lat="49.40167" lon="2.98729">
        <ele>40.03</ele>
        <time>2021-07-29T11:58:15Z</time>
      </trkpt>
      <trkpt lat="49.40184" lon="2.98404">
        <ele>35.71</ele>
        <time>2021-07-29T11:58:32Z</time>
      </trkpt>
      <trkpt lat="49.40204" lon="2.9795">
        <ele>38.11</ele>
        <time>2021-07-29T11:58:54Z</time>
      </trkpt>
      <trkpt lat="49.40222" lon="2.97579">
        <ele>37.15</ele>
        <time>2021-07-29T11:59:14Z</time>
      </trkpt>
      <trkpt lat="49.40238" lon="2.97215">
        <ele>36.19</ele>
        <time>2021-07-29T11:59:34Z</time>
      </trkpt>
      <trkpt lat="49.40262" lon="2.96748">
        <ele>35.23</ele>
        <time>2021-07-29T12:00:00Z</time>
      </trkpt>
      <trkpt lat="49.40244" lon="2.96569">
        <ele>33.78</ele>
        <time>2021-07-29T12:00:10Z</time>
      </trkpt>
      <trkpt lat="49.40219" lon="2.96368">
        <ele>34.74</ele>
        <time>2021-07-29T12:00:20Z</time>
      </trkpt>
      <trkpt lat="49.40219" lon="2.96368">
        <ele>34.26</ele>
        <time>2021-07-29T12:00:21Z</time>
      </trkpt>
      <trkpt lat="49.40222" lon="2.96347">
        <ele>34.74</ele>
        <time>2021-07-29T12:00:22Z</time>
      </trkpt>
      <trkpt lat="49.40288" lon="2.96087">
        <ele>34.74</ele>
        <time>2021-07-29T12:00:34Z</time>
      </trkpt>
      <trkpt lat="49.40396" lon="2.9568">
        <ele>35.23</ele>
        <time>2021-07-29T12:00:51Z</time>
      </trkpt>
      <trkpt lat="49.40535" lon="2.95163">
        <ele>34.26</ele>
        <time>2021-07-29T12:01:10Z</time>
      </trkpt>
      <trkpt lat="49.40671" lon="2.94656">
        <ele>33.3</ele>
        <time>2021-07-29T12:01:29Z</time>
      </trkpt>
      <trkpt lat="49.4079" lon="2.94212">
        <ele>31.38</ele>
        <time>2021-07-29T12:01:45Z</time>
      </trkpt>
      <trkpt lat="49.40936" lon="2.93669">
        <ele>32.82</ele>
        <time>2021-07-29T12:02:05Z</time>
      </trkpt>
      <trkpt lat="49.41067" lon="2.93182">
        <ele>35.23</ele>
        <time>2021-07-29T12:02:22Z</time>
      </trkpt>
      <trkpt lat="49.41204" lon="2.92681">
        <ele>34.74</ele>
        <time>2021-07-29T12:02:42Z</time>
      </trkpt>
      <trkpt lat="49.41332" lon="2.92247">
        <ele>30.42</ele>
        <time>2021-07-29T12:03:00Z</time>
      </trkpt>
      <trkpt lat="49.41348" lon="2.92216">
        <ele>29.94</ele>
        <time>2021-07-29T12:03:01Z</time>
      </trkpt>
      <trkpt lat="49.41354" lon="2.92207">
        <ele>28.98</ele>
        <time>2021-07-29T12:03:03Z</time>
      </trkpt>
      <trkpt lat="49.41357" lon="2.92201">
        <ele>29.46</ele>
        <time>2021-07-29T12:03:04Z</time>
      </trkpt>
      <trkpt lat="49.4136" lon="2.92199">
        <ele>31.86</ele>
        <time>2021-07-29T12:03:12Z</time>
      </trkpt>
      <trkpt lat="49.41379" lon="2.9218">
        <ele>31.86</ele>
        <time>2021-07-29T12:05:15Z</time>
      </trkpt>
      <trkpt lat="49.41383" lon="2.92174">
        <ele>31.86</ele>
        <time>2021-07-29T12:05:16Z</time>
      </trkpt>
      <trkpt lat="49.41387" lon="2.92167">
        <ele>31.86</ele>
        <time>2021-07-29T12:05:17Z</time>
      </trkpt>
      <trkpt lat="49.41391" lon="2.92159">
        <ele>31.86</ele>
        <time>2021-07-29T12:05:18Z</time>
      </trkpt>
      <trkpt lat="49.41393" lon="2.92148">
        <ele>31.86</ele>
        <time>2021-07-29T12:05:19Z</time>
      </trkpt>
      <trkpt lat="49.41395" lon="2.92136">
        <ele>31.86</ele>
        <time>2021-07-29T12:05:20Z</time>
      </trkpt>
      <trkpt lat="49.41397" lon="2.92123">
        <ele>31.86</ele>
        <time>2021-07-29T12:05:21Z</time>
      </trkpt>
      <trkpt lat="49.41426" lon="2.9194">
        <ele>32.34</ele>
        <time>2021-07-29T12:05:31Z</time>
      </trkpt>
      <trkpt lat="49.41525" lon="2.91619">
        <ele>33.3</ele>
        <time>2021-07-29T12:05:45Z</time>
      </trkpt>
      <trkpt lat="49.41601" lon="2.9138">
        <ele>34.74</ele>
        <time>2021-07-29T12:05:56Z</time>
      </trkpt>
      <trkpt lat="49.41752" lon="2.90912">
        <ele>34.26</ele>
        <time>2021-07-29T12:06:15Z</time>
      </trkpt>
      <trkpt lat="49.41822" lon="2.90801">
        <ele>33.3</ele>
        <time>2021-07-29T12:06:21Z</time>
      </trkpt>
      <trkpt lat="49.41964" lon="2.90688">
        <ele>36.19</ele>
        <time>2021-07-29T12:06:29Z</time>
      </trkpt>
      <trkpt lat="49.41964" lon="2.90688">
        <ele>36.19</ele>
        <time>2021-07-29T12:06:30Z</time>
      </trkpt>
      <trkpt lat="49.42058" lon="2.90525">
        <ele>40.51</ele>
        <time>2021-07-29T12:06:38Z</time>
      </trkpt>
      <trkpt lat="49.4215" lon="2.90255">
        <ele>35.23</ele>
        <time>2021-07-29T12:06:48Z</time>
      </trkpt>
      <trkpt lat="49.42175" lon="2.90052">
        <ele>33.3</ele>
        <time>2021-07-29T12:06:55Z</time>
      </trkpt>
      <trkpt lat="49.4215" lon="2.89811">
        <ele>30.9</ele>
        <time>2021-07-29T12:07:03Z</time>
      </trkpt>
      <trkpt lat="49.42155" lon="2.89635">
        <ele>33.3</ele>
        <time>2021-07-29T12:07:09Z</time>
      </trkpt>
      <trkpt lat="49.42222" lon="2.89395">
        <ele>34.74</ele>
        <time>2021-07-29T12:07:18Z</time>
      </trkpt>
      <trkpt lat="49.42438" lon="2.88698">
        <ele>32.34</ele>
        <time>2021-07-29T12:07:44Z</time>
      </trkpt>
      <trkpt lat="49.42579" lon="2.88244">
        <ele>30.9</ele>
        <time>2021-07-29T12:08:02Z</time>
      </trkpt>
      <trkpt lat="49.42608" lon="2.88134">
        <ele>29.94</ele>
        <time>2021-07-29T12:08:07Z</time>
      </trkpt>
      <trkpt lat="49.42613" lon="2.88113">
        <ele>29.94</ele>
        <time>2021-07-29T12:08:08Z</time>
      </trkpt>
      <trkpt lat="49.42616" lon="2.88092">
        <ele>28.98</ele>
        <time>2021-07-29T12:08:09Z</time>
      </trkpt>
      <trkpt lat="49.42615" lon="2.88071">
        <ele>28.5</ele>
        <time>2021-07-29T12:08:10Z</time>
      </trkpt>
      <trkpt lat="49.42613" lon="2.88048">
        <ele>28.5</ele>
        <time>2021-07-29T12:08:11Z</time>
      </trkpt>
      <trkpt lat="49.42611" lon="2.88024">
        <ele>28.5</ele>
        <time>2021-07-29T12:08:12Z</time>
      </trkpt>
      <trkpt lat="49.42573" lon="2.877">
        <ele>27.05</ele>
        <time>2021-07-29T12:08:27Z</time>
      </trkpt>
      <trkpt lat="49.42573" lon="2.87683">
        <ele>27.05</ele>
        <time>2021-07-29T12:08:28Z</time>
      </trkpt>
      <trkpt lat="49.42573" lon="2.87672">
        <ele>28.02</ele>
        <time>2021-07-29T12:08:29Z</time>
      </trkpt>
      <trkpt lat="49.42587" lon="2.87656">
        <ele>28.5</ele>
        <time>2021-07-29T12:08:30Z</time>
      </trkpt>
      <trkpt lat="49.42591" lon="2.87639">
        <ele>28.02</ele>
        <time>2021-07-29T12:08:31Z</time>
      </trkpt>
      <trkpt lat="49.42596" lon="2.87627">
        <ele>27.05</ele>
        <time>2021-07-29T12:08:32Z</time>
      </trkpt>
      <trkpt lat="49.42604" lon="2.87613">
        <ele>26.09</ele>
        <time>2021-07-29T12:08:33Z</time>
      </trkpt>
      <trkpt lat="49.42612" lon="2.87599">
        <ele>26.57</ele>
        <time>2021-07-29T12:08:34Z</time>
      </trkpt>
      <trkpt lat="49.42619" lon="2.87585">
        <ele>27.05</ele>
        <time>2021-07-29T12:08:35Z</time>
      </trkpt>
      <trkpt lat="49.42648" lon="2.87556">
        <ele>27.05</ele>
        <time>2021-07-29T12:08:38Z</time>
      </trkpt>
      <trkpt lat="49.42657" lon="2.87554">
        <ele>27.53</ele>
        <time>2021-07-29T12:08:39Z</time>
      </trkpt>
      <trkpt lat="49.42682" lon="2.87546">
        <ele>28.98</ele>
        <time>2021-07-29T12:08:41Z</time>
      </trkpt>
      <trkpt lat="49.42682" lon="2.87546">
        <ele>28.98</ele>
        <time>2021-07-29T12:08:42Z</time>
      </trkpt>
      <trkpt lat="49.42689" lon="2.87539">
        <ele>28.98</ele>
        <time>2021-07-29T12:08:43Z</time>
      </trkpt>
      <trkpt lat="49.42692" lon="2.8753">
        <ele>28.98</ele>
        <time>2021-07-29T12:08:44Z</time>
      </trkpt>
      <trkpt lat="49.42697" lon="2.87517">
        <ele>28.98</ele>
        <time>2021-07-29T12:08:45Z</time>
      </trkpt>
      <trkpt lat="49.42702" lon="2.87506">
        <ele>28.5</ele>
        <time>2021-07-29T12:08:46Z</time>
      </trkpt>
      <trkpt lat="49.42708" lon="2.87494">
        <ele>28.5</ele>
        <time>2021-07-29T12:08:47Z</time>
      </trkpt>
      <trkpt lat="49.42714" lon="2.87481">
        <ele>28.5</ele>
        <time>2021-07-29T12:08:48Z</time>
      </trkpt>
      <trkpt lat="49.42721" lon="2.87468">
        <ele>29.94</ele>
        <time>2021-07-29T12:08:49Z</time>
      </trkpt>
      <trkpt lat="49.42851" lon="2.87343">
        <ele>34.74</ele>
        <time>2021-07-29T12:09:01Z</time>
      </trkpt>
      <trkpt lat="49.4305" lon="2.87153">
        <ele>37.15</ele>
        <time>2021-07-29T12:09:17Z</time>
      </trkpt>
      <trkpt lat="49.43209" lon="2.86937">
        <ele>37.63</ele>
        <time>2021-07-29T12:09:30Z</time>
      </trkpt>
      <trkpt lat="49.43358" lon="2.86632">
        <ele>38.59</ele>
        <time>2021-07-29T12:09:44Z</time>
      </trkpt>
      <trkpt lat="49.43462" lon="2.86295">
        <ele>42.44</ele>
        <time>2021-07-29T12:09:57Z</time>
      </trkpt>
      <trkpt lat="49.43521" lon="2.85951">
        <ele>42.44</ele>
        <time>2021-07-29T12:10:09Z</time>
      </trkpt>
      <trkpt lat="49.43549" lon="2.85542">
        <ele>43.88</ele>
        <time>2021-07-29T12:10:23Z</time>
      </trkpt>
      <trkpt lat="49.43607" lon="2.85017">
        <ele>42.92</ele>
        <time>2021-07-29T12:10:41Z</time>
      </trkpt>
      <trkpt lat="49.43655" lon="2.84734">
        <ele>40.99</ele>
        <time>2021-07-29T12:10:51Z</time>
      </trkpt>
      <trkpt lat="49.43703" lon="2.84502">
        <ele>36.67</ele>
        <time>2021-07-29T12:11:04Z</time>
      </trkpt>
      <trkpt lat="49.43713" lon="2.84473">
        <ele>36.19</ele>
        <time>2021-07-29T12:11:07Z</time>
      </trkpt>
      <trkpt lat="49.43716" lon="2.84467">
        <ele>35.71</ele>
        <time>2021-07-29T12:11:08Z</time>
      </trkpt>
      <trkpt lat="49.4373" lon="2.84447">
        <ele>35.71</ele>
        <time>2021-07-29T12:11:11Z</time>
      </trkpt>
      <trkpt lat="49.43738" lon="2.84425">
        <ele>35.71</ele>
        <time>2021-07-29T12:11:12Z</time>
      </trkpt>
      <trkpt lat="49.43738" lon="2.84425">
        <ele>35.71</ele>
        <time>2021-07-29T12:11:13Z</time>
      </trkpt>
      <trkpt lat="49.43738" lon="2.84413">
        <ele>35.71</ele>
        <time>2021-07-29T12:11:14Z</time>
      </trkpt>
      <trkpt lat="49.43734" lon="2.84402">
        <ele>35.71</ele>
        <time>2021-07-29T12:11:15Z</time>
      </trkpt>
      <trkpt lat="49.4373" lon="2.8439">
        <ele>35.71</ele>
        <time>2021-07-29T12:11:16Z</time>
      </trkpt>
      <trkpt lat="49.43731" lon="2.84373">
        <ele>35.23</ele>
        <time>2021-07-29T12:11:17Z</time>
      </trkpt>
      <trkpt lat="49.43732" lon="2.84357">
        <ele>34.74</ele>
        <time>2021-07-29T12:11:18Z</time>
      </trkpt>
      <trkpt lat="49.43734" lon="2.84342">
        <ele>34.74</ele>
        <time>2021-07-29T12:11:19Z</time>
      </trkpt>
      <trkpt lat="49.43737" lon="2.84309">
        <ele>35.23</ele>
        <time>2021-07-29T12:11:20Z</time>
      </trkpt>
      <trkpt lat="49.43769" lon="2.84127">
        <ele>38.11</ele>
        <time>2021-07-29T12:11:30Z</time>
      </trkpt>
      <trkpt lat="49.43812" lon="2.83835">
        <ele>40.03</ele>
        <time>2021-07-29T12:11:42Z</time>
      </trkpt>
      <trkpt lat="49.43828" lon="2.83473">
        <ele>44.36</ele>
        <time>2021-07-29T12:11:55Z</time>
      </trkpt>
      <trkpt lat="49.43823" lon="2.82927">
        <ele>55.41</ele>
        <time>2021-07-29T12:12:14Z</time>
      </trkpt>
      <trkpt lat="49.4385" lon="2.8245">
        <ele>67.91</ele>
        <time>2021-07-29T12:12:31Z</time>
      </trkpt>
      <trkpt lat="49.43836" lon="2.82113">
        <ele>77.04</ele>
        <time>2021-07-29T12:12:42Z</time>
      </trkpt>
      <trkpt lat="49.43786" lon="2.81958">
        <ele>78.97</ele>
        <time>2021-07-29T12:12:49Z</time>
      </trkpt>
      <trkpt lat="49.43692" lon="2.81806">
        <ele>81.37</ele>
        <time>2021-07-29T12:12:56Z</time>
      </trkpt>
      <trkpt lat="49.43497" lon="2.81617">
        <ele>83.77</ele>
        <time>2021-07-29T12:13:07Z</time>
      </trkpt>
      <trkpt lat="49.4331" lon="2.81369">
        <ele>80.41</ele>
        <time>2021-07-29T12:13:18Z</time>
      </trkpt>
      <trkpt lat="49.4305" lon="2.80914">
        <ele>75.6</ele>
        <time>2021-07-29T12:13:35Z</time>
      </trkpt>
      <trkpt lat="49.42734" lon="2.80374">
        <ele>70.31</ele>
        <time>2021-07-29T12:13:55Z</time>
      </trkpt>
      <trkpt lat="49.42363" lon="2.79895">
        <ele>64.07</ele>
        <time>2021-07-29T12:14:16Z</time>
      </trkpt>
      <trkpt lat="49.41998" lon="2.79425">
        <ele>59.74</ele>
        <time>2021-07-29T12:14:37Z</time>
      </trkpt>
      <trkpt lat="49.41719" lon="2.79043">
        <ele>54.45</ele>
        <time>2021-07-29T12:14:53Z</time>
      </trkpt>
      <trkpt lat="49.41593" lon="2.78777">
        <ele>54.45</ele>
        <time>2021-07-29T12:15:04Z</time>
      </trkpt>
      <trkpt lat="49.41498" lon="2.78481">
        <ele>54.93</ele>
        <time>2021-07-29T12:15:15Z</time>
      </trkpt>
      <trkpt lat="49.41393" lon="2.78121">
        <ele>56.37</ele>
        <time>2021-07-29T12:15:28Z</time>
      </trkpt>
      <trkpt lat="49.41254" lon="2.77826">
        <ele>62.62</ele>
        <time>2021-07-29T12:15:40Z</time>
      </trkpt>
      <trkpt lat="49.41043" lon="2.77422">
        <ele>69.35</ele>
        <time>2021-07-29T12:15:58Z</time>
      </trkpt>
      <trkpt lat="49.40908" lon="2.77065">
        <ele>71.76</ele>
        <time>2021-07-29T12:16:11Z</time>
      </trkpt>
      <trkpt lat="49.40794" lon="2.76641">
        <ele>77.04</ele>
        <time>2021-07-29T12:16:26Z</time>
      </trkpt>
      <trkpt lat="49.40663" lon="2.7604">
        <ele>71.27</ele>
        <time>2021-07-29T12:16:47Z</time>
      </trkpt>
      <trkpt lat="49.40551" lon="2.75527">
        <ele>64.07</ele>
        <time>2021-07-29T12:17:04Z</time>
      </trkpt>
      <trkpt lat="49.40447" lon="2.75056">
        <ele>62.14</ele>
        <time>2021-07-29T12:17:22Z</time>
      </trkpt>
      <trkpt lat="49.40372" lon="2.74706">
        <ele>56.37</ele>
        <time>2021-07-29T12:17:35Z</time>
      </trkpt>
      <trkpt lat="49.40348" lon="2.74573">
        <ele>55.89</ele>
        <time>2021-07-29T12:17:43Z</time>
      </trkpt>
      <trkpt lat="49.40346" lon="2.74538">
        <ele>56.37</ele>
        <time>2021-07-29T12:17:45Z</time>
      </trkpt>
      <trkpt lat="49.40354" lon="2.74507">
        <ele>57.34</ele>
        <time>2021-07-29T12:17:47Z</time>
      </trkpt>
      <trkpt lat="49.40354" lon="2.74507">
        <ele>57.34</ele>
        <time>2021-07-29T12:17:48Z</time>
      </trkpt>
      <trkpt lat="49.40347" lon="2.74488">
        <ele>57.34</ele>
        <time>2021-07-29T12:17:49Z</time>
      </trkpt>
      <trkpt lat="49.40324" lon="2.7446">
        <ele>59.26</ele>
        <time>2021-07-29T12:17:52Z</time>
      </trkpt>
      <trkpt lat="49.40319" lon="2.74445">
        <ele>59.74</ele>
        <time>2021-07-29T12:17:53Z</time>
      </trkpt>
      <trkpt lat="49.40276" lon="2.7424">
        <ele>60.7</ele>
        <time>2021-07-29T12:18:03Z</time>
      </trkpt>
      <trkpt lat="49.40254" lon="2.73958">
        <ele>66.47</ele>
        <time>2021-07-29T12:18:14Z</time>
      </trkpt>
      <trkpt lat="49.40259" lon="2.73418">
        <ele>74.16</ele>
        <time>2021-07-29T12:18:33Z</time>
      </trkpt>
      <trkpt lat="49.40267" lon="2.72738">
        <ele>89.54</ele>
        <time>2021-07-29T12:18:56Z</time>
      </trkpt>
      <trkpt lat="49.40275" lon="2.71945">
        <ele>91.46</ele>
        <time>2021-07-29T12:19:21Z</time>
      </trkpt>
      <trkpt lat="49.40276" lon="2.71164">
        <ele>96.75</ele>
        <time>2021-07-29T12:19:48Z</time>
      </trkpt>
      <trkpt lat="49.40227" lon="2.70893">
        <ele>92.9</ele>
        <time>2021-07-29T12:19:57Z</time>
      </trkpt>
      <trkpt lat="49.40111" lon="2.70473">
        <ele>83.77</ele>
        <time>2021-07-29T12:20:12Z</time>
      </trkpt>
      <trkpt lat="49.40072" lon="2.70164">
        <ele>76.08</ele>
        <time>2021-07-29T12:20:22Z</time>
      </trkpt>
      <trkpt lat="49.4008" lon="2.69881">
        <ele>72.24</ele>
        <time>2021-07-29T12:20:31Z</time>
      </trkpt>
      <trkpt lat="49.40136" lon="2.69561">
        <ele>70.31</ele>
        <time>2021-07-29T12:20:42Z</time>
      </trkpt>
      <trkpt lat="49.40252" lon="2.68988">
        <ele>67.43</ele>
        <time>2021-07-29T12:21:03Z</time>
      </trkpt>
      <trkpt lat="49.40304" lon="2.68608">
        <ele>69.83</ele>
        <time>2021-07-29T12:21:16Z</time>
      </trkpt>
      <trkpt lat="49.4032" lon="2.68107">
        <ele>75.6</ele>
        <time>2021-07-29T12:21:32Z</time>
      </trkpt>
      <trkpt lat="49.40328" lon="2.6735">
        <ele>81.37</ele>
        <time>2021-07-29T12:21:56Z</time>
      </trkpt>
      <trkpt lat="49.40337" lon="2.66623">
        <ele>86.66</ele>
        <time>2021-07-29T12:22:20Z</time>
      </trkpt>
      <trkpt lat="49.40346" lon="2.65805">
        <ele>87.14</ele>
        <time>2021-07-29T12:22:46Z</time>
      </trkpt>
      <trkpt lat="49.40351" lon="2.65293">
        <ele>90.5</ele>
        <time>2021-07-29T12:23:04Z</time>
      </trkpt>
      <trkpt lat="49.40352" lon="2.6514">
        <ele>91.94</ele>
        <time>2021-07-29T12:23:12Z</time>
      </trkpt>
      <trkpt lat="49.40352" lon="2.65094">
        <ele>91.46</ele>
        <time>2021-07-29T12:23:15Z</time>
      </trkpt>
      <trkpt lat="49.40352" lon="2.65082">
        <ele>91.46</ele>
        <time>2021-07-29T12:23:16Z</time>
      </trkpt>
      <trkpt lat="49.40352" lon="2.6507">
        <ele>91.46</ele>
        <time>2021-07-29T12:23:17Z</time>
      </trkpt>
      <trkpt lat="49.40367" lon="2.65054">
        <ele>91.94</ele>
        <time>2021-07-29T12:23:19Z</time>
      </trkpt>
      <trkpt lat="49.4037" lon="2.65046">
        <ele>91.94</ele>
        <time>2021-07-29T12:23:20Z</time>
      </trkpt>
      <trkpt lat="49.40373" lon="2.65034">
        <ele>91.94</ele>
        <time>2021-07-29T12:23:21Z</time>
      </trkpt>
      <trkpt lat="49.40373" lon="2.65025">
        <ele>92.42</ele>
        <time>2021-07-29T12:23:22Z</time>
      </trkpt>
      <trkpt lat="49.40372" lon="2.65015">
        <ele>92.9</ele>
        <time>2021-07-29T12:23:23Z</time>
      </trkpt>
      <trkpt lat="49.40365" lon="2.65009">
        <ele>92.9</ele>
        <time>2021-07-29T12:23:24Z</time>
      </trkpt>
      <trkpt lat="49.40359" lon="2.65004">
        <ele>93.39</ele>
        <time>2021-07-29T12:23:25Z</time>
      </trkpt>
      <trkpt lat="49.40354" lon="2.64974">
        <ele>93.39</ele>
        <time>2021-07-29T12:23:26Z</time>
      </trkpt>
      <trkpt lat="49.40354" lon="2.64974">
        <ele>93.39</ele>
        <time>2021-07-29T12:23:27Z</time>
      </trkpt>
      <trkpt lat="49.40354" lon="2.64961">
        <ele>92.42</ele>
        <time>2021-07-29T12:23:28Z</time>
      </trkpt>
      <trkpt lat="49.40354" lon="2.64945">
        <ele>92.42</ele>
        <time>2021-07-29T12:23:29Z</time>
      </trkpt>
      <trkpt lat="49.40357" lon="2.64733">
        <ele>95.79</ele>
        <time>2021-07-29T12:23:40Z</time>
      </trkpt>
      <trkpt lat="49.40361" lon="2.64384">
        <ele>98.67</ele>
        <time>2021-07-29T12:23:54Z</time>
      </trkpt>
      <trkpt lat="49.40367" lon="2.63838">
        <ele>100.11</ele>
        <time>2021-07-29T12:24:13Z</time>
      </trkpt>
      <trkpt lat="49.40373" lon="2.63349">
        <ele>99.63</ele>
        <time>2021-07-29T12:24:30Z</time>
      </trkpt>
      <trkpt lat="49.4038" lon="2.62854">
        <ele>103</ele>
        <time>2021-07-29T12:24:49Z</time>
      </trkpt>
      <trkpt lat="49.40379" lon="2.62736">
        <ele>104.44</ele>
        <time>2021-07-29T12:24:57Z</time>
      </trkpt>
      <trkpt lat="49.40378" lon="2.62719">
        <ele>104.44</ele>
        <time>2021-07-29T12:24:59Z</time>
      </trkpt>
      <trkpt lat="49.40379" lon="2.62713">
        <ele>104.44</ele>
        <time>2021-07-29T12:25:00Z</time>
      </trkpt>
      <trkpt lat="49.4038" lon="2.62706">
        <ele>103.96</ele>
        <time>2021-07-29T12:25:01Z</time>
      </trkpt>
      <trkpt lat="49.40381" lon="2.62699">
        <ele>103.96</ele>
        <time>2021-07-29T12:25:02Z</time>
      </trkpt>
      <trkpt lat="49.40383" lon="2.62692">
        <ele>103.96</ele>
        <time>2021-07-29T12:25:03Z</time>
      </trkpt>
      <trkpt lat="49.40391" lon="2.62667">
        <ele>103.96</ele>
        <time>2021-07-29T12:25:06Z</time>
      </trkpt>
      <trkpt lat="49.40391" lon="2.62657">
        <ele>103.96</ele>
        <time>2021-07-29T12:25:07Z</time>
      </trkpt>
      <trkpt lat="49.40391" lon="2.62645">
        <ele>103.96</ele>
        <time>2021-07-29T12:25:08Z</time>
      </trkpt>
      <trkpt lat="49.40391" lon="2.62634">
        <ele>103.96</ele>
        <time>2021-07-29T12:25:09Z</time>
      </trkpt>
      <trkpt lat="49.40384" lon="2.62621">
        <ele>103.96</ele>
        <time>2021-07-29T12:25:10Z</time>
      </trkpt>
      <trkpt lat="49.40379" lon="2.62612">
        <ele>103.96</ele>
        <time>2021-07-29T12:25:11Z</time>
      </trkpt>
      <trkpt lat="49.40373" lon="2.62601">
        <ele>104.44</ele>
        <time>2021-07-29T12:25:12Z</time>
      </trkpt>
      <trkpt lat="49.40314" lon="2.6246">
        <ele>103.48</ele>
        <time>2021-07-29T12:25:21Z</time>
      </trkpt>
      <trkpt lat="49.40227" lon="2.62185">
        <ele>100.6</ele>
        <time>2021-07-29T12:25:34Z</time>
      </trkpt>
      <trkpt lat="49.4012" lon="2.6185">
        <ele>98.67</ele>
        <time>2021-07-29T12:25:47Z</time>
      </trkpt>
      <trkpt lat="49.39891" lon="2.61136">
        <ele>97.23</ele>
        <time>2021-07-29T12:26:13Z</time>
      </trkpt>
      <trkpt lat="49.39719" lon="2.60596">
        <ele>97.23</ele>
        <time>2021-07-29T12:26:33Z</time>
      </trkpt>
      <trkpt lat="49.3955" lon="2.60068">
        <ele>98.19</ele>
        <time>2021-07-29T12:26:53Z</time>
      </trkpt>
      <trkpt lat="49.39351" lon="2.59445">
        <ele>93.87</ele>
        <time>2021-07-29T12:27:16Z</time>
      </trkpt>
      <trkpt lat="49.39161" lon="2.5885">
        <ele>95.79</ele>
        <time>2021-07-29T12:27:38Z</time>
      </trkpt>
      <trkpt lat="49.38995" lon="2.58329">
        <ele>94.83</ele>
        <time>2021-07-29T12:27:57Z</time>
      </trkpt>
      <trkpt lat="49.38884" lon="2.57985">
        <ele>93.87</ele>
        <time>2021-07-29T12:28:11Z</time>
      </trkpt>
      <trkpt lat="49.38863" lon="2.57921">
        <ele>92.9</ele>
        <time>2021-07-29T12:28:15Z</time>
      </trkpt>
      <trkpt lat="49.38859" lon="2.5791">
        <ele>93.87</ele>
        <time>2021-07-29T12:28:16Z</time>
      </trkpt>
      <trkpt lat="49.38856" lon="2.579">
        <ele>93.39</ele>
        <time>2021-07-29T12:28:17Z</time>
      </trkpt>
      <trkpt lat="49.38863" lon="2.57861">
        <ele>93.87</ele>
        <time>2021-07-29T12:28:20Z</time>
      </trkpt>
      <trkpt lat="49.38863" lon="2.57853">
        <ele>94.35</ele>
        <time>2021-07-29T12:28:21Z</time>
      </trkpt>
      <trkpt lat="49.38856" lon="2.57843">
        <ele>94.35</ele>
        <time>2021-07-29T12:28:22Z</time>
      </trkpt>
      <trkpt lat="49.38851" lon="2.57837">
        <ele>94.35</ele>
        <time>2021-07-29T12:28:23Z</time>
      </trkpt>
      <trkpt lat="49.3885" lon="2.57835">
        <ele>94.83</ele>
        <time>2021-07-29T12:28:24Z</time>
      </trkpt>
      <trkpt lat="49.38834" lon="2.57826">
        <ele>94.83</ele>
        <time>2021-07-29T12:28:25Z</time>
      </trkpt>
      <trkpt lat="49.3883" lon="2.57815">
        <ele>95.79</ele>
        <time>2021-07-29T12:28:26Z</time>
      </trkpt>
      <trkpt lat="49.38826" lon="2.57802">
        <ele>95.79</ele>
        <time>2021-07-29T12:28:27Z</time>
      </trkpt>
      <trkpt lat="49.38821" lon="2.57787">
        <ele>95.31</ele>
        <time>2021-07-29T12:28:28Z</time>
      </trkpt>
      <trkpt lat="49.38771" lon="2.57625">
        <ele>92.9</ele>
        <time>2021-07-29T12:28:37Z</time>
      </trkpt>
      <trkpt lat="49.38663" lon="2.57293">
        <ele>94.35</ele>
        <time>2021-07-29T12:28:52Z</time>
      </trkpt>
      <trkpt lat="49.38537" lon="2.56898">
        <ele>91.46</ele>
        <time>2021-07-29T12:29:08Z</time>
      </trkpt>
      <trkpt lat="49.38344" lon="2.5629">
        <ele>90.5</ele>
        <time>2021-07-29T12:29:31Z</time>
      </trkpt>
      <trkpt lat="49.38164" lon="2.55729">
        <ele>87.14</ele>
        <time>2021-07-29T12:29:51Z</time>
      </trkpt>
      <trkpt lat="49.37988" lon="2.55174">
        <ele>78.48</ele>
        <time>2021-07-29T12:30:10Z</time>
      </trkpt>
      <trkpt lat="49.37854" lon="2.5474">
        <ele>74.16</ele>
        <time>2021-07-29T12:30:26Z</time>
      </trkpt>
      <trkpt lat="49.3778" lon="2.54385">
        <ele>73.68</ele>
        <time>2021-07-29T12:30:39Z</time>
      </trkpt>
      <trkpt lat="49.37654" lon="2.53653">
        <ele>73.68</ele>
        <time>2021-07-29T12:31:05Z</time>
      </trkpt>
      <trkpt lat="49.37556" lon="2.53081">
        <ele>67.91</ele>
        <time>2021-07-29T12:31:25Z</time>
      </trkpt>
      <trkpt lat="49.37495" lon="2.52721">
        <ele>66.47</ele>
        <time>2021-07-29T12:31:38Z</time>
      </trkpt>
      <trkpt lat="49.37458" lon="2.52502">
        <ele>65.03</ele>
        <time>2021-07-29T12:31:48Z</time>
      </trkpt>
      <trkpt lat="49.37455" lon="2.52476">
        <ele>65.51</ele>
        <time>2021-07-29T12:31:49Z</time>
      </trkpt>
      <trkpt lat="49.37454" lon="2.52465">
        <ele>65.51</ele>
        <time>2021-07-29T12:31:50Z</time>
      </trkpt>
      <trkpt lat="49.37454" lon="2.52465">
        <ele>65.51</ele>
        <time>2021-07-29T12:31:51Z</time>
      </trkpt>
      <trkpt lat="49.37462" lon="2.52441">
        <ele>65.51</ele>
        <time>2021-07-29T12:31:52Z</time>
      </trkpt>
      <trkpt lat="49.37462" lon="2.52441">
        <ele>65.51</ele>
        <time>2021-07-29T12:31:53Z</time>
      </trkpt>
      <trkpt lat="49.3748" lon="2.52433">
        <ele>65.51</ele>
        <time>2021-07-29T12:31:54Z</time>
      </trkpt>
      <trkpt lat="49.37489" lon="2.52432">
        <ele>65.99</ele>
        <time>2021-07-29T12:31:55Z</time>
      </trkpt>
      <trkpt lat="49.37489" lon="2.52432">
        <ele>65.51</ele>
        <time>2021-07-29T12:31:56Z</time>
      </trkpt>
      <trkpt lat="49.37616" lon="2.5242">
        <ele>72.24</ele>
        <time>2021-07-29T12:32:06Z</time>
      </trkpt>
      <trkpt lat="49.3778" lon="2.52371">
        <ele>76.08</ele>
        <time>2021-07-29T12:32:17Z</time>
      </trkpt>
      <trkpt lat="49.37873" lon="2.52328">
        <ele>74.16</ele>
        <time>2021-07-29T12:32:24Z</time>
      </trkpt>
      <trkpt lat="49.37883" lon="2.52323">
        <ele>74.16</ele>
        <time>2021-07-29T12:32:25Z</time>
      </trkpt>
      <trkpt lat="49.37893" lon="2.52319">
        <ele>73.68</ele>
        <time>2021-07-29T12:32:26Z</time>
      </trkpt>
      <trkpt lat="49.37904" lon="2.52327">
        <ele>73.2</ele>
        <time>2021-07-29T12:32:27Z</time>
      </trkpt>
      <trkpt lat="49.37911" lon="2.52334">
        <ele>73.68</ele>
        <time>2021-07-29T12:32:28Z</time>
      </trkpt>
      <trkpt lat="49.37918" lon="2.52334">
        <ele>74.64</ele>
        <time>2021-07-29T12:32:29Z</time>
      </trkpt>
      <trkpt lat="49.37924" lon="2.5233">
        <ele>75.6</ele>
        <time>2021-07-29T12:32:30Z</time>
      </trkpt>
      <trkpt lat="49.37929" lon="2.52323">
        <ele>76.08</ele>
        <time>2021-07-29T12:32:31Z</time>
      </trkpt>
      <trkpt lat="49.37934" lon="2.52317">
        <ele>76.56</ele>
        <time>2021-07-29T12:32:32Z</time>
      </trkpt>
      <trkpt lat="49.37933" lon="2.52309">
        <ele>75.6</ele>
        <time>2021-07-29T12:32:33Z</time>
      </trkpt>
      <trkpt lat="49.37933" lon="2.52299">
        <ele>75.6</ele>
        <time>2021-07-29T12:32:34Z</time>
      </trkpt>
      <trkpt lat="49.37932" lon="2.52286">
        <ele>75.6</ele>
        <time>2021-07-29T12:32:35Z</time>
      </trkpt>
      <trkpt lat="49.37934" lon="2.52276">
        <ele>75.6</ele>
        <time>2021-07-29T12:32:36Z</time>
      </trkpt>
      <trkpt lat="49.37935" lon="2.52263">
        <ele>75.6</ele>
        <time>2021-07-29T12:32:37Z</time>
      </trkpt>
      <trkpt lat="49.37937" lon="2.5225">
        <ele>75.6</ele>
        <time>2021-07-29T12:32:38Z</time>
      </trkpt>
      <trkpt lat="49.37985" lon="2.52112">
        <ele>73.68</ele>
        <time>2021-07-29T12:32:46Z</time>
      </trkpt>
      <trkpt lat="49.38076" lon="2.51866">
        <ele>71.76</ele>
        <time>2021-07-29T12:32:56Z</time>
      </trkpt>
      <trkpt lat="49.38185" lon="2.51556">
        <ele>72.72</ele>
        <time>2021-07-29T12:33:07Z</time>
      </trkpt>
      <trkpt lat="49.38227" lon="2.51261">
        <ele>72.72</ele>
        <time>2021-07-29T12:33:15Z</time>
      </trkpt>
      <trkpt lat="49.38256" lon="2.50827">
        <ele>72.72</ele>
        <time>2021-07-29T12:33:28Z</time>
      </trkpt>
      <trkpt lat="49.38343" lon="2.50319">
        <ele>73.2</ele>
        <time>2021-07-29T12:33:42Z</time>
      </trkpt>
      <trkpt lat="49.38472" lon="2.49549">
        <ele>75.6</ele>
        <time>2021-07-29T12:34:03Z</time>
      </trkpt>
      <trkpt lat="49.38501" lon="2.4913">
        <ele>77.04</ele>
        <time>2021-07-29T12:34:14Z</time>
      </trkpt>
      <trkpt lat="49.3848" lon="2.48668">
        <ele>79.45</ele>
        <time>2021-07-29T12:34:26Z</time>
      </trkpt>
      <trkpt lat="49.38433" lon="2.48169">
        <ele>79.45</ele>
        <time>2021-07-29T12:34:39Z</time>
      </trkpt>
      <trkpt lat="49.3845" lon="2.47821">
        <ele>76.56</ele>
        <time>2021-07-29T12:34:48Z</time>
      </trkpt>
      <trkpt lat="49.3853" lon="2.47335">
        <ele>73.68</ele>
        <time>2021-07-29T12:35:01Z</time>
      </trkpt>
      <trkpt lat="49.38633" lon="2.46684">
        <ele>72.72</ele>
        <time>2021-07-29T12:35:18Z</time>
      </trkpt>
      <trkpt lat="49.38627" lon="2.46428">
        <ele>74.16</ele>
        <time>2021-07-29T12:35:26Z</time>
      </trkpt>
      <trkpt lat="49.38572" lon="2.46147">
        <ele>71.27</ele>
        <time>2021-07-29T12:35:34Z</time>
      </trkpt>
      <trkpt lat="49.38459" lon="2.45865">
        <ele>69.35</ele>
        <time>2021-07-29T12:35:42Z</time>
      </trkpt>
      <trkpt lat="49.38131" lon="2.4524">
        <ele>58.78</ele>
        <time>2021-07-29T12:36:03Z</time>
      </trkpt>
      <trkpt lat="49.38025" lon="2.44974">
        <ele>57.34</ele>
        <time>2021-07-29T12:36:12Z</time>
      </trkpt>
      <trkpt lat="49.37969" lon="2.4468">
        <ele>56.37</ele>
        <time>2021-07-29T12:36:20Z</time>
      </trkpt>
      <trkpt lat="49.37965" lon="2.4437">
        <ele>51.09</ele>
        <time>2021-07-29T12:36:28Z</time>
      </trkpt>
      <trkpt lat="49.38029" lon="2.43869">
        <ele>46.28</ele>
        <time>2021-07-29T12:36:40Z</time>
      </trkpt>
      <trkpt lat="49.38113" lon="2.43623">
        <ele>46.28</ele>
        <time>2021-07-29T12:36:48Z</time>
      </trkpt>
      <trkpt lat="49.38246" lon="2.43383">
        <ele>46.28</ele>
        <time>2021-07-29T12:36:56Z</time>
      </trkpt>
      <trkpt lat="49.38574" lon="2.42888">
        <ele>51.09</ele>
        <time>2021-07-29T12:37:15Z</time>
      </trkpt>
      <trkpt lat="49.3871" lon="2.42583">
        <ele>52.53</ele>
        <time>2021-07-29T12:37:25Z</time>
      </trkpt>
      <trkpt lat="49.38794" lon="2.42267">
        <ele>51.57</ele>
        <time>2021-07-29T12:37:34Z</time>
      </trkpt>
      <trkpt lat="49.38847" lon="2.41858">
        <ele>52.05</ele>
        <time>2021-07-29T12:37:45Z</time>
      </trkpt>
      <trkpt lat="49.38922" lon="2.41061">
        <ele>56.86</ele>
        <time>2021-07-29T12:38:07Z</time>
      </trkpt>
      <trkpt lat="49.38937" lon="2.4063">
        <ele>61.18</ele>
        <time>2021-07-29T12:38:19Z</time>
      </trkpt>
      <trkpt lat="49.38947" lon="2.40223">
        <ele>56.86</ele>
        <time>2021-07-29T12:38:30Z</time>
      </trkpt>
      <trkpt lat="49.38993" lon="2.3964">
        <ele>52.53</ele>
        <time>2021-07-29T12:38:44Z</time>
      </trkpt>
      <trkpt lat="49.39014" lon="2.38941">
        <ele>53.97</ele>
        <time>2021-07-29T12:39:03Z</time>
      </trkpt>
      <trkpt lat="49.39051" lon="2.38651">
        <ele>53.97</ele>
        <time>2021-07-29T12:39:11Z</time>
      </trkpt>
      <trkpt lat="49.39143" lon="2.38363">
        <ele>56.37</ele>
        <time>2021-07-29T12:39:20Z</time>
      </trkpt>
      <trkpt lat="49.39278" lon="2.38124">
        <ele>57.34</ele>
        <time>2021-07-29T12:39:29Z</time>
      </trkpt>
      <trkpt lat="49.39467" lon="2.37919">
        <ele>60.7</ele>
        <time>2021-07-29T12:39:39Z</time>
      </trkpt>
      <trkpt lat="49.39866" lon="2.37516">
        <ele>64.55</ele>
        <time>2021-07-29T12:40:00Z</time>
      </trkpt>
      <trkpt lat="49.40117" lon="2.37223">
        <ele>60.22</ele>
        <time>2021-07-29T12:40:13Z</time>
      </trkpt>
      <trkpt lat="49.40316" lon="2.36887">
        <ele>63.1</ele>
        <time>2021-07-29T12:40:25Z</time>
      </trkpt>
      <trkpt lat="49.40471" lon="2.36503">
        <ele>63.58</ele>
        <time>2021-07-29T12:40:37Z</time>
      </trkpt>
      <trkpt lat="49.40577" lon="2.36087">
        <ele>64.55</ele>
        <time>2021-07-29T12:40:49Z</time>
      </trkpt>
      <trkpt lat="49.4071" lon="2.35457">
        <ele>66.95</ele>
        <time>2021-07-29T12:41:07Z</time>
      </trkpt>
      <trkpt lat="49.4089" lon="2.34581">
        <ele>70.79</ele>
        <time>2021-07-29T12:41:32Z</time>
      </trkpt>
      <trkpt lat="49.4097" lon="2.34029">
        <ele>70.79</ele>
        <time>2021-07-29T12:41:47Z</time>
      </trkpt>
      <trkpt lat="49.41108" lon="2.32988">
        <ele>71.27</ele>
        <time>2021-07-29T12:42:15Z</time>
      </trkpt>
      <trkpt lat="49.41192" lon="2.32348">
        <ele>71.76</ele>
        <time>2021-07-29T12:42:32Z</time>
      </trkpt>
      <trkpt lat="49.41307" lon="2.3146">
        <ele>69.35</ele>
        <time>2021-07-29T12:42:56Z</time>
      </trkpt>
      <trkpt lat="49.41424" lon="2.3058">
        <ele>65.99</ele>
        <time>2021-07-29T12:43:19Z</time>
      </trkpt>
      <trkpt lat="49.41501" lon="2.29875">
        <ele>65.51</ele>
        <time>2021-07-29T12:43:39Z</time>
      </trkpt>
      <trkpt lat="49.41499" lon="2.29457">
        <ele>66.47</ele>
        <time>2021-07-29T12:43:50Z</time>
      </trkpt>
      <trkpt lat="49.4145" lon="2.29024">
        <ele>65.51</ele>
        <time>2021-07-29T12:44:02Z</time>
      </trkpt>
      <trkpt lat="49.41381" lon="2.28459">
        <ele>64.07</ele>
        <time>2021-07-29T12:44:18Z</time>
      </trkpt>
      <trkpt lat="49.41381" lon="2.28024">
        <ele>63.1</ele>
        <time>2021-07-29T12:44:30Z</time>
      </trkpt>
      <trkpt lat="49.41423" lon="2.27204">
        <ele>61.66</ele>
        <time>2021-07-29T12:44:52Z</time>
      </trkpt>
      <trkpt lat="49.41478" lon="2.26499">
        <ele>59.74</ele>
        <time>2021-07-29T12:45:11Z</time>
      </trkpt>
      <trkpt lat="49.41563" lon="2.26144">
        <ele>58.78</ele>
        <time>2021-07-29T12:45:21Z</time>
      </trkpt>
      <trkpt lat="49.41698" lon="2.25791">
        <ele>62.62</ele>
        <time>2021-07-29T12:45:32Z</time>
      </trkpt>
      <trkpt lat="49.41806" lon="2.25467">
        <ele>65.03</ele>
        <time>2021-07-29T12:45:42Z</time>
      </trkpt>
      <trkpt lat="49.41844" lon="2.25182">
        <ele>65.51</ele>
        <time>2021-07-29T12:45:50Z</time>
      </trkpt>
      <trkpt lat="49.41841" lon="2.24886">
        <ele>63.1</ele>
        <time>2021-07-29T12:45:58Z</time>
      </trkpt>
      <trkpt lat="49.41781" lon="2.24527">
        <ele>61.18</ele>
        <time>2021-07-29T12:46:08Z</time>
      </trkpt>
      <trkpt lat="49.41657" lon="2.23919">
        <ele>59.74</ele>
        <time>2021-07-29T12:46:25Z</time>
      </trkpt>
      <trkpt lat="49.41498" lon="2.23144">
        <ele>61.18</ele>
        <time>2021-07-29T12:46:46Z</time>
      </trkpt>
      <trkpt lat="49.41359" lon="2.22428">
        <ele>56.37</ele>
        <time>2021-07-29T12:47:05Z</time>
      </trkpt>
      <trkpt lat="49.41315" lon="2.22006">
        <ele>55.89</ele>
        <time>2021-07-29T12:47:17Z</time>
      </trkpt>
      <trkpt lat="49.41263" lon="2.21287">
        <ele>59.26</ele>
        <time>2021-07-29T12:47:36Z</time>
      </trkpt>
      <trkpt lat="49.41205" lon="2.20404">
        <ele>57.82</ele>
        <time>2021-07-29T12:47:59Z</time>
      </trkpt>
      <trkpt lat="49.41211" lon="2.19855">
        <ele>56.86</ele>
        <time>2021-07-29T12:48:13Z</time>
      </trkpt>
      <trkpt lat="49.41258" lon="2.19322">
        <ele>61.18</ele>
        <time>2021-07-29T12:48:27Z</time>
      </trkpt>
      <trkpt lat="49.41348" lon="2.18828">
        <ele>65.03</ele>
        <time>2021-07-29T12:48:41Z</time>
      </trkpt>
      <trkpt lat="49.41503" lon="2.18158">
        <ele>66.47</ele>
        <time>2021-07-29T12:49:00Z</time>
      </trkpt>
      <trkpt lat="49.41693" lon="2.17336">
        <ele>69.35</ele>
        <time>2021-07-29T12:49:23Z</time>
      </trkpt>
      <trkpt lat="49.41836" lon="2.16723">
        <ele>66.47</ele>
        <time>2021-07-29T12:49:40Z</time>
      </trkpt>
      <trkpt lat="49.41956" lon="2.1631">
        <ele>70.31</ele>
        <time>2021-07-29T12:49:52Z</time>
      </trkpt>
      <trkpt lat="49.42135" lon="2.15736">
        <ele>64.55</ele>
        <time>2021-07-29T12:50:09Z</time>
      </trkpt>
      <trkpt lat="49.42259" lon="2.15188">
        <ele>61.66</ele>
        <time>2021-07-29T12:50:24Z</time>
      </trkpt>
      <trkpt lat="49.42386" lon="2.14609">
        <ele>67.43</ele>
        <time>2021-07-29T12:50:41Z</time>
      </trkpt>
      <trkpt lat="49.42551" lon="2.13855">
        <ele>76.08</ele>
        <time>2021-07-29T12:51:04Z</time>
      </trkpt>
      <trkpt lat="49.42605" lon="2.13507">
        <ele>76.56</ele>
        <time>2021-07-29T12:51:15Z</time>
      </trkpt>
      <trkpt lat="49.42667" lon="2.13136">
        <ele>77.04</ele>
        <time>2021-07-29T12:51:28Z</time>
      </trkpt>
      <trkpt lat="49.42765" lon="2.1288">
        <ele>82.81</ele>
        <time>2021-07-29T12:51:39Z</time>
      </trkpt>
      <trkpt lat="49.42928" lon="2.12637">
        <ele>82.81</ele>
        <time>2021-07-29T12:51:51Z</time>
      </trkpt>
      <trkpt lat="49.43151" lon="2.12346">
        <ele>86.66</ele>
        <time>2021-07-29T12:52:09Z</time>
      </trkpt>
      <trkpt lat="49.43239" lon="2.12252">
        <ele>87.14</ele>
        <time>2021-07-29T12:52:17Z</time>
      </trkpt>
      <trkpt lat="49.43248" lon="2.1225">
        <ele>87.62</ele>
        <time>2021-07-29T12:52:19Z</time>
      </trkpt>
      <trkpt lat="49.43255" lon="2.12249">
        <ele>88.58</ele>
        <time>2021-07-29T12:52:20Z</time>
      </trkpt>
      <trkpt lat="49.43262" lon="2.12248">
        <ele>88.58</ele>
        <time>2021-07-29T12:52:21Z</time>
      </trkpt>
      <trkpt lat="49.43269" lon="2.12248">
        <ele>88.58</ele>
        <time>2021-07-29T12:52:22Z</time>
      </trkpt>
      <trkpt lat="49.4328" lon="2.12249">
        <ele>88.58</ele>
        <time>2021-07-29T12:52:23Z</time>
      </trkpt>
      <trkpt lat="49.4328" lon="2.12249">
        <ele>88.58</ele>
        <time>2021-07-29T12:52:24Z</time>
      </trkpt>
      <trkpt lat="49.43286" lon="2.12253">
        <ele>88.58</ele>
        <time>2021-07-29T12:52:25Z</time>
      </trkpt>
      <trkpt lat="49.43291" lon="2.12258">
        <ele>88.1</ele>
        <time>2021-07-29T12:52:26Z</time>
      </trkpt>
      <trkpt lat="49.43297" lon="2.12264">
        <ele>88.1</ele>
        <time>2021-07-29T12:52:27Z</time>
      </trkpt>
      <trkpt lat="49.43303" lon="2.12271">
        <ele>88.1</ele>
        <time>2021-07-29T12:52:28Z</time>
      </trkpt>
      <trkpt lat="49.43308" lon="2.12279">
        <ele>88.1</ele>
        <time>2021-07-29T12:52:29Z</time>
      </trkpt>
      <trkpt lat="49.43313" lon="2.1229">
        <ele>87.62</ele>
        <time>2021-07-29T12:52:30Z</time>
      </trkpt>
      <trkpt lat="49.43319" lon="2.12302">
        <ele>87.62</ele>
        <time>2021-07-29T12:52:31Z</time>
      </trkpt>
      <trkpt lat="49.43324" lon="2.12313">
        <ele>87.62</ele>
        <time>2021-07-29T12:52:32Z</time>
      </trkpt>
      <trkpt lat="49.43329" lon="2.12327">
        <ele>87.14</ele>
        <time>2021-07-29T12:52:33Z</time>
      </trkpt>
      <trkpt lat="49.43354" lon="2.12544">
        <ele>86.18</ele>
        <time>2021-07-29T12:52:48Z</time>
      </trkpt>
      <trkpt lat="49.4336" lon="2.12601">
        <ele>87.14</ele>
        <time>2021-07-29T12:52:56Z</time>
      </trkpt>
      <trkpt lat="49.43364" lon="2.12626">
        <ele>87.62</ele>
        <time>2021-07-29T12:53:04Z</time>
      </trkpt>
      <trkpt lat="49.43374" lon="2.12708">
        <ele>86.66</ele>
        <time>2021-07-29T12:53:13Z</time>
      </trkpt>
      <trkpt lat="49.43394" lon="2.12885">
        <ele>84.25</ele>
        <time>2021-07-29T12:53:23Z</time>
      </trkpt>
      <trkpt lat="49.43396" lon="2.13025">
        <ele>81.85</ele>
        <time>2021-07-29T12:53:30Z</time>
      </trkpt>
      <trkpt lat="49.43393" lon="2.13047">
        <ele>80.89</ele>
        <time>2021-07-29T12:53:31Z</time>
      </trkpt>
      <trkpt lat="49.43388" lon="2.13067">
        <ele>79.93</ele>
        <time>2021-07-29T12:53:32Z</time>
      </trkpt>
      <trkpt lat="49.43382" lon="2.13089">
        <ele>78.97</ele>
        <time>2021-07-29T12:53:33Z</time>
      </trkpt>
      <trkpt lat="49.43376" lon="2.13109">
        <ele>78.97</ele>
        <time>2021-07-29T12:53:34Z</time>
      </trkpt>
      <trkpt lat="49.43366" lon="2.13125">
        <ele>78.97</ele>
        <time>2021-07-29T12:53:35Z</time>
      </trkpt>
      <trkpt lat="49.43355" lon="2.13142">
        <ele>79.45</ele>
        <time>2021-07-29T12:53:36Z</time>
      </trkpt>
      <trkpt lat="49.43343" lon="2.1316">
        <ele>78.97</ele>
        <time>2021-07-29T12:53:37Z</time>
      </trkpt>
      <trkpt lat="49.43331" lon="2.13179">
        <ele>78.97</ele>
        <time>2021-07-29T12:53:38Z</time>
      </trkpt>
      <trkpt lat="49.43317" lon="2.13192">
        <ele>78.97</ele>
        <time>2021-07-29T12:53:39Z</time>
      </trkpt>
      <trkpt lat="49.43302" lon="2.13206">
        <ele>78.97</ele>
        <time>2021-07-29T12:53:40Z</time>
      </trkpt>
      <trkpt lat="49.43286" lon="2.13214">
        <ele>78.97</ele>
        <time>2021-07-29T12:53:41Z</time>
      </trkpt>
      <trkpt lat="49.43269" lon="2.13222">
        <ele>79.45</ele>
        <time>2021-07-29T12:53:42Z</time>
      </trkpt>
      <trkpt lat="49.43253" lon="2.13227">
        <ele>78.97</ele>
        <time>2021-07-29T12:53:43Z</time>
      </trkpt>
      <trkpt lat="49.43219" lon="2.13226">
        <ele>78.97</ele>
        <time>2021-07-29T12:53:44Z</time>
      </trkpt>
      <trkpt lat="49.43201" lon="2.13223">
        <ele>78</ele>
        <time>2021-07-29T12:53:45Z</time>
      </trkpt>
      <trkpt lat="49.43183" lon="2.13217">
        <ele>77.52</ele>
        <time>2021-07-29T12:53:46Z</time>
      </trkpt>
      <trkpt lat="49.43183" lon="2.13217">
        <ele>78</ele>
        <time>2021-07-29T12:53:47Z</time>
      </trkpt>
      <trkpt lat="49.43167" lon="2.13207">
        <ele>78</ele>
        <time>2021-07-29T12:53:48Z</time>
      </trkpt>
      <trkpt lat="49.4315" lon="2.13195">
        <ele>78.48</ele>
        <time>2021-07-29T12:53:49Z</time>
      </trkpt>
      <trkpt lat="49.43134" lon="2.13179">
        <ele>78</ele>
        <time>2021-07-29T12:53:50Z</time>
      </trkpt>
      <trkpt lat="49.42947" lon="2.12999">
        <ele>76.56</ele>
        <time>2021-07-29T12:54:01Z</time>
      </trkpt>
      <trkpt lat="49.42684" lon="2.12807">
        <ele>73.2</ele>
        <time>2021-07-29T12:54:14Z</time>
      </trkpt>
      <trkpt lat="49.42431" lon="2.12695">
        <ele>69.83</ele>
        <time>2021-07-29T12:54:25Z</time>
      </trkpt>
      <trkpt lat="49.41972" lon="2.12566">
        <ele>61.18</ele>
        <time>2021-07-29T12:54:43Z</time>
      </trkpt>
      <trkpt lat="49.41681" lon="2.12553">
        <ele>58.78</ele>
        <time>2021-07-29T12:54:54Z</time>
      </trkpt>
      <trkpt lat="49.41328" lon="2.12611">
        <ele>60.7</ele>
        <time>2021-07-29T12:55:07Z</time>
      </trkpt>
      <trkpt lat="49.40964" lon="2.12654">
        <ele>65.99</ele>
        <time>2021-07-29T12:55:23Z</time>
      </trkpt>
      <trkpt lat="49.40607" lon="2.1262">
        <ele>75.6</ele>
        <time>2021-07-29T12:55:38Z</time>
      </trkpt>
      <trkpt lat="49.40311" lon="2.12544">
        <ele>83.77</ele>
        <time>2021-07-29T12:55:51Z</time>
      </trkpt>
      <trkpt lat="49.4018" lon="2.12475">
        <ele>91.46</ele>
        <time>2021-07-29T12:55:59Z</time>
      </trkpt>
      <trkpt lat="49.40153" lon="2.12457">
        <ele>89.54</ele>
        <time>2021-07-29T12:56:01Z</time>
      </trkpt>
      <trkpt lat="49.40144" lon="2.12444">
        <ele>89.06</ele>
        <time>2021-07-29T12:56:02Z</time>
      </trkpt>
      <trkpt lat="49.40133" lon="2.1243">
        <ele>89.06</ele>
        <time>2021-07-29T12:56:03Z</time>
      </trkpt>
      <trkpt lat="49.40123" lon="2.12416">
        <ele>88.1</ele>
        <time>2021-07-29T12:56:04Z</time>
      </trkpt>
      <trkpt lat="49.4011" lon="2.12374">
        <ele>87.14</ele>
        <time>2021-07-29T12:56:05Z</time>
      </trkpt>
      <trkpt lat="49.4011" lon="2.12374">
        <ele>84.73</ele>
        <time>2021-07-29T12:56:06Z</time>
      </trkpt>
      <trkpt lat="49.40107" lon="2.1235">
        <ele>82.81</ele>
        <time>2021-07-29T12:56:07Z</time>
      </trkpt>
      <trkpt lat="49.40108" lon="2.12303">
        <ele>81.37</ele>
        <time>2021-07-29T12:56:08Z</time>
      </trkpt>
      <trkpt lat="49.40108" lon="2.12303">
        <ele>79.93</ele>
        <time>2021-07-29T12:56:09Z</time>
      </trkpt>
      <trkpt lat="49.4011" lon="2.12281">
        <ele>78.97</ele>
        <time>2021-07-29T12:56:10Z</time>
      </trkpt>
      <trkpt lat="49.40116" lon="2.1226">
        <ele>77.04</ele>
        <time>2021-07-29T12:56:11Z</time>
      </trkpt>
      <trkpt lat="49.40123" lon="2.12238">
        <ele>75.6</ele>
        <time>2021-07-29T12:56:12Z</time>
      </trkpt>
      <trkpt lat="49.40132" lon="2.12221">
        <ele>75.6</ele>
        <time>2021-07-29T12:56:13Z</time>
      </trkpt>
      <trkpt lat="49.40141" lon="2.12204">
        <ele>74.64</ele>
        <time>2021-07-29T12:56:14Z</time>
      </trkpt>
      <trkpt lat="49.40151" lon="2.12186">
        <ele>74.64</ele>
        <time>2021-07-29T12:56:15Z</time>
      </trkpt>
      <trkpt lat="49.40163" lon="2.12166">
        <ele>74.64</ele>
        <time>2021-07-29T12:56:16Z</time>
      </trkpt>
      <trkpt lat="49.40246" lon="2.12118">
        <ele>75.12</ele>
        <time>2021-07-29T12:56:24Z</time>
      </trkpt>
      <trkpt lat="49.40267" lon="2.12108">
        <ele>71.76</ele>
        <time>2021-07-29T12:56:32Z</time>
      </trkpt>
      <trkpt lat="49.40296" lon="2.12091">
        <ele>71.27</ele>
        <time>2021-07-29T12:56:37Z</time>
      </trkpt>
      <trkpt lat="49.40369" lon="2.12047">
        <ele>69.83</ele>
        <time>2021-07-29T12:56:45Z</time>
      </trkpt>
      <trkpt lat="49.40402" lon="2.12028">
        <ele>68.87</ele>
        <time>2021-07-29T12:56:48Z</time>
      </trkpt>
      <trkpt lat="49.40413" lon="2.12028">
        <ele>68.87</ele>
        <time>2021-07-29T12:56:49Z</time>
      </trkpt>
      <trkpt lat="49.40423" lon="2.12029">
        <ele>67.91</ele>
        <time>2021-07-29T12:56:50Z</time>
      </trkpt>
      <trkpt lat="49.40439" lon="2.1203">
        <ele>67.43</ele>
        <time>2021-07-29T12:56:51Z</time>
      </trkpt>
      <trkpt lat="49.40447" lon="2.12035">
        <ele>66.95</ele>
        <time>2021-07-29T12:56:52Z</time>
      </trkpt>
      <trkpt lat="49.40455" lon="2.1204">
        <ele>66.95</ele>
        <time>2021-07-29T12:56:53Z</time>
      </trkpt>
      <trkpt lat="49.40455" lon="2.1204">
        <ele>66.47</ele>
        <time>2021-07-29T12:56:54Z</time>
      </trkpt>
      <trkpt lat="49.40462" lon="2.12045">
        <ele>66.47</ele>
        <time>2021-07-29T12:56:55Z</time>
      </trkpt>
      <trkpt lat="49.40466" lon="2.12055">
        <ele>66.47</ele>
        <time>2021-07-29T12:56:56Z</time>
      </trkpt>
      <trkpt lat="49.40471" lon="2.12068">
        <ele>67.91</ele>
        <time>2021-07-29T12:56:57Z</time>
      </trkpt>
      <trkpt lat="49.40474" lon="2.12083">
        <ele>68.39</ele>
        <time>2021-07-29T12:56:58Z</time>
      </trkpt>
      <trkpt lat="49.40472" lon="2.12099">
        <ele>68.39</ele>
        <time>2021-07-29T12:56:59Z</time>
      </trkpt>
      <trkpt lat="49.4047" lon="2.12115">
        <ele>69.35</ele>
        <time>2021-07-29T12:57:00Z</time>
      </trkpt>
      <trkpt lat="49.40468" lon="2.12131">
        <ele>70.31</ele>
        <time>2021-07-29T12:57:01Z</time>
      </trkpt>
      <trkpt lat="49.40467" lon="2.12148">
        <ele>68.87</ele>
        <time>2021-07-29T12:57:02Z</time>
      </trkpt>
      <trkpt lat="49.40461" lon="2.12166">
        <ele>69.35</ele>
        <time>2021-07-29T12:57:03Z</time>
      </trkpt>
      <trkpt lat="49.40372" lon="2.12386">
        <ele>70.79</ele>
        <time>2021-07-29T12:57:15Z</time>
      </trkpt>
      <trkpt lat="49.4025" lon="2.12688">
        <ele>76.56</ele>
        <time>2021-07-29T12:57:30Z</time>
      </trkpt>
      <trkpt lat="49.40124" lon="2.12996">
        <ele>79.93</ele>
        <time>2021-07-29T12:57:46Z</time>
      </trkpt>
      <trkpt lat="49.40092" lon="2.13067">
        <ele>82.81</ele>
        <time>2021-07-29T12:57:53Z</time>
      </trkpt>
      <trkpt lat="49.40089" lon="2.13072">
        <ele>83.77</ele>
        <time>2021-07-29T12:57:55Z</time>
      </trkpt>
      <trkpt lat="49.40087" lon="2.13078">
        <ele>84.25</ele>
        <time>2021-07-29T12:57:56Z</time>
      </trkpt>
      <trkpt lat="49.40084" lon="2.13083">
        <ele>84.25</ele>
        <time>2021-07-29T12:57:57Z</time>
      </trkpt>
      <trkpt lat="49.40079" lon="2.13092">
        <ele>84.25</ele>
        <time>2021-07-29T12:57:58Z</time>
      </trkpt>
      <trkpt lat="49.40074" lon="2.13092">
        <ele>84.25</ele>
        <time>2021-07-29T12:57:59Z</time>
      </trkpt>
      <trkpt lat="49.40069" lon="2.13092">
        <ele>84.25</ele>
        <time>2021-07-29T12:58:00Z</time>
      </trkpt>
      <trkpt lat="49.40062" lon="2.13095">
        <ele>84.25</ele>
        <time>2021-07-29T12:58:01Z</time>
      </trkpt>
      <trkpt lat="49.40056" lon="2.13099">
        <ele>83.77</ele>
        <time>2021-07-29T12:58:02Z</time>
      </trkpt>
      <trkpt lat="49.40051" lon="2.13107">
        <ele>83.77</ele>
        <time>2021-07-29T12:58:03Z</time>
      </trkpt>
      <trkpt lat="49.40046" lon="2.13115">
        <ele>83.29</ele>
        <time>2021-07-29T12:58:04Z</time>
      </trkpt>
      <trkpt lat="49.40044" lon="2.13139">
        <ele>83.29</ele>
        <time>2021-07-29T12:58:05Z</time>
      </trkpt>
      <trkpt lat="49.40044" lon="2.13139">
        <ele>83.29</ele>
        <time>2021-07-29T12:58:06Z</time>
      </trkpt>
      <trkpt lat="49.40046" lon="2.1315">
        <ele>83.29</ele>
        <time>2021-07-29T12:58:07Z</time>
      </trkpt>
      <trkpt lat="49.40055" lon="2.13171">
        <ele>83.77</ele>
        <time>2021-07-29T12:58:08Z</time>
      </trkpt>
      <trkpt lat="49.40055" lon="2.13171">
        <ele>82.81</ele>
        <time>2021-07-29T12:58:09Z</time>
      </trkpt>
      <trkpt lat="49.40062" lon="2.13175">
        <ele>82.33</ele>
        <time>2021-07-29T12:58:10Z</time>
      </trkpt>
      <trkpt lat="49.4007" lon="2.13177">
        <ele>81.85</ele>
        <time>2021-07-29T12:58:11Z</time>
      </trkpt>
      <trkpt lat="49.40078" lon="2.13176">
        <ele>81.85</ele>
        <time>2021-07-29T12:58:12Z</time>
      </trkpt>
      <trkpt lat="49.40085" lon="2.13169">
        <ele>81.37</ele>
        <time>2021-07-29T12:58:13Z</time>
      </trkpt>
      <trkpt lat="49.40096" lon="2.1315">
        <ele>80.89</ele>
        <time>2021-07-29T12:58:14Z</time>
      </trkpt>
      <trkpt lat="49.40096" lon="2.1315">
        <ele>80.41</ele>
        <time>2021-07-29T12:58:15Z</time>
      </trkpt>
      <trkpt lat="49.40098" lon="2.13126">
        <ele>79.93</ele>
        <time>2021-07-29T12:58:16Z</time>
      </trkpt>
      <trkpt lat="49.40098" lon="2.13126">
        <ele>78.97</ele>
        <time>2021-07-29T12:58:17Z</time>
      </trkpt>
      <trkpt lat="49.40091" lon="2.13105">
        <ele>79.45</ele>
        <time>2021-07-29T12:58:18Z</time>
      </trkpt>
      <trkpt lat="49.40085" lon="2.13098">
        <ele>79.93</ele>
        <time>2021-07-29T12:58:19Z</time>
      </trkpt>
      <trkpt lat="49.40079" lon="2.13092">
        <ele>79.93</ele>
        <time>2021-07-29T12:58:20Z</time>
      </trkpt>
      <trkpt lat="49.40071" lon="2.13092">
        <ele>79.93</ele>
        <time>2021-07-29T12:58:21Z</time>
      </trkpt>
      <trkpt lat="49.40071" lon="2.13092">
        <ele>80.41</ele>
        <time>2021-07-29T12:58:22Z</time>
      </trkpt>
      <trkpt lat="49.40061" lon="2.13085">
        <ele>79.93</ele>
        <time>2021-07-29T12:58:23Z</time>
      </trkpt>
      <trkpt lat="49.40054" lon="2.13077">
        <ele>79.93</ele>
        <time>2021-07-29T12:58:24Z</time>
      </trkpt>
      <trkpt lat="49.40045" lon="2.13067">
        <ele>79.45</ele>
        <time>2021-07-29T12:58:25Z</time>
      </trkpt>
      <trkpt lat="49.40037" lon="2.13057">
        <ele>80.41</ele>
        <time>2021-07-29T12:58:26Z</time>
      </trkpt>
      <trkpt lat="49.40029" lon="2.13047">
        <ele>80.89</ele>
        <time>2021-07-29T12:58:27Z</time>
      </trkpt>
      <trkpt lat="49.39929" lon="2.1286">
        <ele>88.58</ele>
        <time>2021-07-29T12:58:39Z</time>
      </trkpt>
      <trkpt lat="49.39766" lon="2.12563">
        <ele>93.39</ele>
        <time>2021-07-29T12:58:56Z</time>
      </trkpt>
      <trkpt lat="49.3964" lon="2.12277">
        <ele>95.79</ele>
        <time>2021-07-29T12:59:10Z</time>
      </trkpt>
      <trkpt lat="49.39565" lon="2.11999">
        <ele>93.87</ele>
        <time>2021-07-29T12:59:21Z</time>
      </trkpt>
      <trkpt lat="49.39487" lon="2.11558">
        <ele>94.83</ele>
        <time>2021-07-29T12:59:36Z</time>
      </trkpt>
      <trkpt lat="49.39399" lon="2.1124">
        <ele>100.11</ele>
        <time>2021-07-29T12:59:47Z</time>
      </trkpt>
      <trkpt lat="49.39234" lon="2.10858">
        <ele>107.81</ele>
        <time>2021-07-29T13:00:01Z</time>
      </trkpt>
      <trkpt lat="49.39073" lon="2.10466">
        <ele>113.09</ele>
        <time>2021-07-29T13:00:15Z</time>
      </trkpt>
      <trkpt lat="49.39037" lon="2.10229">
        <ele>117.42</ele>
        <time>2021-07-29T13:00:23Z</time>
      </trkpt>
      <trkpt lat="49.39054" lon="2.09958">
        <ele>121.74</ele>
        <time>2021-07-29T13:00:31Z</time>
      </trkpt>
      <trkpt lat="49.39054" lon="2.09958">
        <ele>121.74</ele>
        <time>2021-07-29T13:00:32Z</time>
      </trkpt>
      <trkpt lat="49.39155" lon="2.09593">
        <ele>131.36</ele>
        <time>2021-07-29T13:00:45Z</time>
      </trkpt>
      <trkpt lat="49.39255" lon="2.09237">
        <ele>128.95</ele>
        <time>2021-07-29T13:00:57Z</time>
      </trkpt>
      <trkpt lat="49.39303" lon="2.08884">
        <ele>113.09</ele>
        <time>2021-07-29T13:01:07Z</time>
      </trkpt>
      <trkpt lat="49.39305" lon="2.08511">
        <ele>104.92</ele>
        <time>2021-07-29T13:01:17Z</time>
      </trkpt>
      <trkpt lat="49.39257" lon="2.08175">
        <ele>99.15</ele>
        <time>2021-07-29T13:01:27Z</time>
      </trkpt>
      <trkpt lat="49.39167" lon="2.0784">
        <ele>94.83</ele>
        <time>2021-07-29T13:01:38Z</time>
      </trkpt>
      <trkpt lat="49.39049" lon="2.07567">
        <ele>90.98</ele>
        <time>2021-07-29T13:01:48Z</time>
      </trkpt>
      <trkpt lat="49.38883" lon="2.07309">
        <ele>88.58</ele>
        <time>2021-07-29T13:01:59Z</time>
      </trkpt>
      <trkpt lat="49.38715" lon="2.07036">
        <ele>92.42</ele>
        <time>2021-07-29T13:02:10Z</time>
      </trkpt>
      <trkpt lat="49.38621" lon="2.06779">
        <ele>98.19</ele>
        <time>2021-07-29T13:02:19Z</time>
      </trkpt>
      <trkpt lat="49.38565" lon="2.06471">
        <ele>103.96</ele>
        <time>2021-07-29T13:02:29Z</time>
      </trkpt>
      <trkpt lat="49.38495" lon="2.05704">
        <ele>97.23</ele>
        <time>2021-07-29T13:02:52Z</time>
      </trkpt>
      <trkpt lat="49.38442" lon="2.0513">
        <ele>94.35</ele>
        <time>2021-07-29T13:03:10Z</time>
      </trkpt>
      <trkpt lat="49.38382" lon="2.04461">
        <ele>92.9</ele>
        <time>2021-07-29T13:03:32Z</time>
      </trkpt>
      <trkpt lat="49.38325" lon="2.03837">
        <ele>96.75</ele>
        <time>2021-07-29T13:03:53Z</time>
      </trkpt>
      <trkpt lat="49.38265" lon="2.03191">
        <ele>102.52</ele>
        <time>2021-07-29T13:04:13Z</time>
      </trkpt>
      <trkpt lat="49.38224" lon="2.02671">
        <ele>100.11</ele>
        <time>2021-07-29T13:04:31Z</time>
      </trkpt>
      <trkpt lat="49.38239" lon="2.02394">
        <ele>95.79</ele>
        <time>2021-07-29T13:04:40Z</time>
      </trkpt>
      <trkpt lat="49.38311" lon="2.02073">
        <ele>96.75</ele>
        <time>2021-07-29T13:04:50Z</time>
      </trkpt>
      <trkpt lat="49.38408" lon="2.0184">
        <ele>90.5</ele>
        <time>2021-07-29T13:05:00Z</time>
      </trkpt>
      <trkpt lat="49.38655" lon="2.01383">
        <ele>89.54</ele>
        <time>2021-07-29T13:05:20Z</time>
      </trkpt>
      <trkpt lat="49.38879" lon="2.0097">
        <ele>90.98</ele>
        <time>2021-07-29T13:05:40Z</time>
      </trkpt>
      <trkpt lat="49.3905" lon="2.00659">
        <ele>89.06</ele>
        <time>2021-07-29T13:05:54Z</time>
      </trkpt>
      <trkpt lat="49.39174" lon="2.00452">
        <ele>94.35</ele>
        <time>2021-07-29T13:06:04Z</time>
      </trkpt>
      <trkpt lat="49.39345" lon="2.00166">
        <ele>92.42</ele>
        <time>2021-07-29T13:06:18Z</time>
      </trkpt>
      <trkpt lat="49.39508" lon="1.99875">
        <ele>86.66</ele>
        <time>2021-07-29T13:06:32Z</time>
      </trkpt>
      <trkpt lat="49.39676" lon="1.99547">
        <ele>97.71</ele>
        <time>2021-07-29T13:06:48Z</time>
      </trkpt>
      <trkpt lat="49.3979" lon="1.99319">
        <ele>104.44</ele>
        <time>2021-07-29T13:06:57Z</time>
      </trkpt>
      <trkpt lat="49.39974" lon="1.99002">
        <ele>105.4</ele>
        <time>2021-07-29T13:07:09Z</time>
      </trkpt>
      <trkpt lat="49.40161" lon="1.98784">
        <ele>104.92</ele>
        <time>2021-07-29T13:07:19Z</time>
      </trkpt>
      <trkpt lat="49.40384" lon="1.98626">
        <ele>99.63</ele>
        <time>2021-07-29T13:07:29Z</time>
      </trkpt>
      <trkpt lat="49.40656" lon="1.98518">
        <ele>91.46</ele>
        <time>2021-07-29T13:07:40Z</time>
      </trkpt>
      <trkpt lat="49.41098" lon="1.98354">
        <ele>80.41</ele>
        <time>2021-07-29T13:07:58Z</time>
      </trkpt>
      <trkpt lat="49.41519" lon="1.98188">
        <ele>82.81</ele>
        <time>2021-07-29T13:08:17Z</time>
      </trkpt>
      <trkpt lat="49.41655" lon="1.98069">
        <ele>82.33</ele>
        <time>2021-07-29T13:08:24Z</time>
      </trkpt>
      <trkpt lat="49.41766" lon="1.97897">
        <ele>83.29</ele>
        <time>2021-07-29T13:08:31Z</time>
      </trkpt>
      <trkpt lat="49.41853" lon="1.97655">
        <ele>86.66</ele>
        <time>2021-07-29T13:08:39Z</time>
      </trkpt>
      <trkpt lat="49.42005" lon="1.97054">
        <ele>76.56</ele>
        <time>2021-07-29T13:08:58Z</time>
      </trkpt>
      <trkpt lat="49.42049" lon="1.96874">
        <ele>78.97</ele>
        <time>2021-07-29T13:09:05Z</time>
      </trkpt>
      <trkpt lat="49.42072" lon="1.96801">
        <ele>79.45</ele>
        <time>2021-07-29T13:09:11Z</time>
      </trkpt>
      <trkpt lat="49.42075" lon="1.96797">
        <ele>80.89</ele>
        <time>2021-07-29T13:09:19Z</time>
      </trkpt>
      <trkpt lat="49.42082" lon="1.96787">
        <ele>80.89</ele>
        <time>2021-07-29T13:09:20Z</time>
      </trkpt>
      <trkpt lat="49.42086" lon="1.96782">
        <ele>80.89</ele>
        <time>2021-07-29T13:09:21Z</time>
      </trkpt>
      <trkpt lat="49.42086" lon="1.96782">
        <ele>80.89</ele>
        <time>2021-07-29T13:09:22Z</time>
      </trkpt>
      <trkpt lat="49.42091" lon="1.96777">
        <ele>81.37</ele>
        <time>2021-07-29T13:09:23Z</time>
      </trkpt>
      <trkpt lat="49.42093" lon="1.96769">
        <ele>81.37</ele>
        <time>2021-07-29T13:09:24Z</time>
      </trkpt>
      <trkpt lat="49.42096" lon="1.9676">
        <ele>81.37</ele>
        <time>2021-07-29T13:09:25Z</time>
      </trkpt>
      <trkpt lat="49.42094" lon="1.96749">
        <ele>81.37</ele>
        <time>2021-07-29T13:09:26Z</time>
      </trkpt>
      <trkpt lat="49.4209" lon="1.96739">
        <ele>81.37</ele>
        <time>2021-07-29T13:09:27Z</time>
      </trkpt>
      <trkpt lat="49.42088" lon="1.96735">
        <ele>81.37</ele>
        <time>2021-07-29T13:09:28Z</time>
      </trkpt>
      <trkpt lat="49.42073" lon="1.96717">
        <ele>81.37</ele>
        <time>2021-07-29T13:09:29Z</time>
      </trkpt>
      <trkpt lat="49.42073" lon="1.96701">
        <ele>80.89</ele>
        <time>2021-07-29T13:09:30Z</time>
      </trkpt>
      <trkpt lat="49.42072" lon="1.96518">
        <ele>83.77</ele>
        <time>2021-07-29T13:09:39Z</time>
      </trkpt>
      <trkpt lat="49.42052" lon="1.96181">
        <ele>85.21</ele>
        <time>2021-07-29T13:09:52Z</time>
      </trkpt>
      <trkpt lat="49.41994" lon="1.95667">
        <ele>99.15</ele>
        <time>2021-07-29T13:10:12Z</time>
      </trkpt>
      <trkpt lat="49.41941" lon="1.95253">
        <ele>88.58</ele>
        <time>2021-07-29T13:10:27Z</time>
      </trkpt>
      <trkpt lat="49.41909" lon="1.95016">
        <ele>93.87</ele>
        <time>2021-07-29T13:10:37Z</time>
      </trkpt>
      <trkpt lat="49.41866" lon="1.94687">
        <ele>100.6</ele>
        <time>2021-07-29T13:10:54Z</time>
      </trkpt>
      <trkpt lat="49.41837" lon="1.94484">
        <ele>104.44</ele>
        <time>2021-07-29T13:11:05Z</time>
      </trkpt>
      <trkpt lat="49.41811" lon="1.94285">
        <ele>104.44</ele>
        <time>2021-07-29T13:11:16Z</time>
      </trkpt>
      <trkpt lat="49.41757" lon="1.93899">
        <ele>103.96</ele>
        <time>2021-07-29T13:11:36Z</time>
      </trkpt>
      <trkpt lat="49.41756" lon="1.93781">
        <ele>103.48</ele>
        <time>2021-07-29T13:11:42Z</time>
      </trkpt>
      <trkpt lat="49.41756" lon="1.93763">
        <ele>102.52</ele>
        <time>2021-07-29T13:11:43Z</time>
      </trkpt>
      <trkpt lat="49.41758" lon="1.93742">
        <ele>102.04</ele>
        <time>2021-07-29T13:11:44Z</time>
      </trkpt>
      <trkpt lat="49.41763" lon="1.93723">
        <ele>102.04</ele>
        <time>2021-07-29T13:11:45Z</time>
      </trkpt>
      <trkpt lat="49.41768" lon="1.93705">
        <ele>102.04</ele>
        <time>2021-07-29T13:11:46Z</time>
      </trkpt>
      <trkpt lat="49.41777" lon="1.9369">
        <ele>102.04</ele>
        <time>2021-07-29T13:11:47Z</time>
      </trkpt>
      <trkpt lat="49.41786" lon="1.93675">
        <ele>101.56</ele>
        <time>2021-07-29T13:11:48Z</time>
      </trkpt>
      <trkpt lat="49.41796" lon="1.93661">
        <ele>101.56</ele>
        <time>2021-07-29T13:11:49Z</time>
      </trkpt>
      <trkpt lat="49.41807" lon="1.93651">
        <ele>101.56</ele>
        <time>2021-07-29T13:11:50Z</time>
      </trkpt>
      <trkpt lat="49.41819" lon="1.93642">
        <ele>100.6</ele>
        <time>2021-07-29T13:11:51Z</time>
      </trkpt>
      <trkpt lat="49.41844" lon="1.93628">
        <ele>101.56</ele>
        <time>2021-07-29T13:11:52Z</time>
      </trkpt>
      <trkpt lat="49.41844" lon="1.93628">
        <ele>101.56</ele>
        <time>2021-07-29T13:11:53Z</time>
      </trkpt>
      <trkpt lat="49.4204" lon="1.9355">
        <ele>99.15</ele>
        <time>2021-07-29T13:12:06Z</time>
      </trkpt>
      <trkpt lat="49.42144" lon="1.93507">
        <ele>96.27</ele>
        <time>2021-07-29T13:12:14Z</time>
      </trkpt>
      <trkpt lat="49.42303" lon="1.93442">
        <ele>92.42</ele>
        <time>2021-07-29T13:12:27Z</time>
      </trkpt>
      <trkpt lat="49.42479" lon="1.93366">
        <ele>88.1</ele>
        <time>2021-07-29T13:12:38Z</time>
      </trkpt>
      <trkpt lat="49.42596" lon="1.93238">
        <ele>82.81</ele>
        <time>2021-07-29T13:12:45Z</time>
      </trkpt>
      <trkpt lat="49.42857" lon="1.92917">
        <ele>82.33</ele>
        <time>2021-07-29T13:13:04Z</time>
      </trkpt>
      <trkpt lat="49.4307" lon="1.92653">
        <ele>81.85</ele>
        <time>2021-07-29T13:13:19Z</time>
      </trkpt>
      <trkpt lat="49.43243" lon="1.9244">
        <ele>78.97</ele>
        <time>2021-07-29T13:13:33Z</time>
      </trkpt>
      <trkpt lat="49.43384" lon="1.92259">
        <ele>80.89</ele>
        <time>2021-07-29T13:13:46Z</time>
      </trkpt>
      <trkpt lat="49.43437" lon="1.92141">
        <ele>79.93</ele>
        <time>2021-07-29T13:13:54Z</time>
      </trkpt>
      <trkpt lat="49.43465" lon="1.91909">
        <ele>83.77</ele>
        <time>2021-07-29T13:14:06Z</time>
      </trkpt>
      <trkpt lat="49.43496" lon="1.91635">
        <ele>86.18</ele>
        <time>2021-07-29T13:14:20Z</time>
      </trkpt>
      <trkpt lat="49.43498" lon="1.9161">
        <ele>86.18</ele>
        <time>2021-07-29T13:14:24Z</time>
      </trkpt>
      <trkpt lat="49.43501" lon="1.91579">
        <ele>86.66</ele>
        <time>2021-07-29T13:14:39Z</time>
      </trkpt>
      <trkpt lat="49.43514" lon="1.9147">
        <ele>86.18</ele>
        <time>2021-07-29T13:14:47Z</time>
      </trkpt>
      <trkpt lat="49.43529" lon="1.9132">
        <ele>87.62</ele>
        <time>2021-07-29T13:14:57Z</time>
      </trkpt>
      <trkpt lat="49.43566" lon="1.90975">
        <ele>85.21</ele>
        <time>2021-07-29T13:15:13Z</time>
      </trkpt>
      <trkpt lat="49.43607" lon="1.90589">
        <ele>90.98</ele>
        <time>2021-07-29T13:15:31Z</time>
      </trkpt>
      <trkpt lat="49.43634" lon="1.90335">
        <ele>93.87</ele>
        <time>2021-07-29T13:15:45Z</time>
      </trkpt>
      <trkpt lat="49.43676" lon="1.8993">
        <ele>100.6</ele>
        <time>2021-07-29T13:16:07Z</time>
      </trkpt>
      <trkpt lat="49.43712" lon="1.89585">
        <ele>103.96</ele>
        <time>2021-07-29T13:16:25Z</time>
      </trkpt>
      <trkpt lat="49.43756" lon="1.89288">
        <ele>99.63</ele>
        <time>2021-07-29T13:16:38Z</time>
      </trkpt>
      <trkpt lat="49.43823" lon="1.8887">
        <ele>93.39</ele>
        <time>2021-07-29T13:16:52Z</time>
      </trkpt>
      <trkpt lat="49.43904" lon="1.88352">
        <ele>90.02</ele>
        <time>2021-07-29T13:17:10Z</time>
      </trkpt>
      <trkpt lat="49.43974" lon="1.87894">
        <ele>86.18</ele>
        <time>2021-07-29T13:17:27Z</time>
      </trkpt>
      <trkpt lat="49.44044" lon="1.87451">
        <ele>91.94</ele>
        <time>2021-07-29T13:17:46Z</time>
      </trkpt>
      <trkpt lat="49.44099" lon="1.86998">
        <ele>103</ele>
        <time>2021-07-29T13:18:06Z</time>
      </trkpt>
      <trkpt lat="49.44072" lon="1.86843">
        <ele>102.52</ele>
        <time>2021-07-29T13:18:14Z</time>
      </trkpt>
      <trkpt lat="49.44035" lon="1.866">
        <ele>97.71</ele>
        <time>2021-07-29T13:18:23Z</time>
      </trkpt>
      <trkpt lat="49.44039" lon="1.86219">
        <ele>94.83</ele>
        <time>2021-07-29T13:18:35Z</time>
      </trkpt>
      <trkpt lat="49.44048" lon="1.85775">
        <ele>103.96</ele>
        <time>2021-07-29T13:18:49Z</time>
      </trkpt>
      <trkpt lat="49.44074" lon="1.85468">
        <ele>105.88</ele>
        <time>2021-07-29T13:19:00Z</time>
      </trkpt>
      <trkpt lat="49.44158" lon="1.84947">
        <ele>101.56</ele>
        <time>2021-07-29T13:19:17Z</time>
      </trkpt>
      <trkpt lat="49.44237" lon="1.8449">
        <ele>95.31</ele>
        <time>2021-07-29T13:19:32Z</time>
      </trkpt>
      <trkpt lat="49.44333" lon="1.83938">
        <ele>97.71</ele>
        <time>2021-07-29T13:19:50Z</time>
      </trkpt>
      <trkpt lat="49.44405" lon="1.83471">
        <ele>101.56</ele>
        <time>2021-07-29T13:20:06Z</time>
      </trkpt>
      <trkpt lat="49.44428" lon="1.82896">
        <ele>102.04</ele>
        <time>2021-07-29T13:20:25Z</time>
      </trkpt>
      <trkpt lat="49.44446" lon="1.82454">
        <ele>105.4</ele>
        <time>2021-07-29T13:20:42Z</time>
      </trkpt>
      <trkpt lat="49.44467" lon="1.81917">
        <ele>107.32</ele>
        <time>2021-07-29T13:21:03Z</time>
      </trkpt>
      <trkpt lat="49.44486" lon="1.8143">
        <ele>110.21</ele>
        <time>2021-07-29T13:21:22Z</time>
      </trkpt>
      <trkpt lat="49.44498" lon="1.81142">
        <ele>114.53</ele>
        <time>2021-07-29T13:21:36Z</time>
      </trkpt>
      <trkpt lat="49.44536" lon="1.80912">
        <ele>115.5</ele>
        <time>2021-07-29T13:21:47Z</time>
      </trkpt>
      <trkpt lat="49.44579" lon="1.80798">
        <ele>113.09</ele>
        <time>2021-07-29T13:21:56Z</time>
      </trkpt>
      <trkpt lat="49.44653" lon="1.8059">
        <ele>111.17</ele>
        <time>2021-07-29T13:22:10Z</time>
      </trkpt>
      <trkpt lat="49.44747" lon="1.80335">
        <ele>108.77</ele>
        <time>2021-07-29T13:22:24Z</time>
      </trkpt>
      <trkpt lat="49.44874" lon="1.7999">
        <ele>107.32</ele>
        <time>2021-07-29T13:22:42Z</time>
      </trkpt>
      <trkpt lat="49.4499" lon="1.79674">
        <ele>107.81</ele>
        <time>2021-07-29T13:22:57Z</time>
      </trkpt>
      <trkpt lat="49.45106" lon="1.79439">
        <ele>103.96</ele>
        <time>2021-07-29T13:23:09Z</time>
      </trkpt>
      <trkpt lat="49.45283" lon="1.79144">
        <ele>97.23</ele>
        <time>2021-07-29T13:23:26Z</time>
      </trkpt>
      <trkpt lat="49.45493" lon="1.78792">
        <ele>93.87</ele>
        <time>2021-07-29T13:23:44Z</time>
      </trkpt>
      <trkpt lat="49.45694" lon="1.78458">
        <ele>87.62</ele>
        <time>2021-07-29T13:24:00Z</time>
      </trkpt>
      <trkpt lat="49.45861" lon="1.78181">
        <ele>85.69</ele>
        <time>2021-07-29T13:24:13Z</time>
      </trkpt>
      <trkpt lat="49.45943" lon="1.78037">
        <ele>85.69</ele>
        <time>2021-07-29T13:24:20Z</time>
      </trkpt>
      <trkpt lat="49.45957" lon="1.77997">
        <ele>85.69</ele>
        <time>2021-07-29T13:24:21Z</time>
      </trkpt>
      <trkpt lat="49.45957" lon="1.77997">
        <ele>85.21</ele>
        <time>2021-07-29T13:24:22Z</time>
      </trkpt>
      <trkpt lat="49.45961" lon="1.77976">
        <ele>85.69</ele>
        <time>2021-07-29T13:24:23Z</time>
      </trkpt>
      <trkpt lat="49.45965" lon="1.77956">
        <ele>85.69</ele>
        <time>2021-07-29T13:24:24Z</time>
      </trkpt>
      <trkpt lat="49.45969" lon="1.77936">
        <ele>85.69</ele>
        <time>2021-07-29T13:24:25Z</time>
      </trkpt>
      <trkpt lat="49.46011" lon="1.77662">
        <ele>82.33</ele>
        <time>2021-07-29T13:24:38Z</time>
      </trkpt>
      <trkpt lat="49.46069" lon="1.77264">
        <ele>82.81</ele>
        <time>2021-07-29T13:24:53Z</time>
      </trkpt>
      <trkpt lat="49.46149" lon="1.7673">
        <ele>83.77</ele>
        <time>2021-07-29T13:25:12Z</time>
      </trkpt>
      <trkpt lat="49.46218" lon="1.76271">
        <ele>80.89</ele>
        <time>2021-07-29T13:25:30Z</time>
      </trkpt>
      <trkpt lat="49.46305" lon="1.7571">
        <ele>79.93</ele>
        <time>2021-07-29T13:25:50Z</time>
      </trkpt>
      <trkpt lat="49.46312" lon="1.75683">
        <ele>80.89</ele>
        <time>2021-07-29T13:25:51Z</time>
      </trkpt>
      <trkpt lat="49.46322" lon="1.75658">
        <ele>80.89</ele>
        <time>2021-07-29T13:25:52Z</time>
      </trkpt>
      <trkpt lat="49.46332" lon="1.75635">
        <ele>80.41</ele>
        <time>2021-07-29T13:25:53Z</time>
      </trkpt>
      <trkpt lat="49.46344" lon="1.75611">
        <ele>81.37</ele>
        <time>2021-07-29T13:25:54Z</time>
      </trkpt>
      <trkpt lat="49.46358" lon="1.75592">
        <ele>82.33</ele>
        <time>2021-07-29T13:25:55Z</time>
      </trkpt>
      <trkpt lat="49.46373" lon="1.75574">
        <ele>82.81</ele>
        <time>2021-07-29T13:25:56Z</time>
      </trkpt>
      <trkpt lat="49.46744" lon="1.75188">
        <ele>82.81</ele>
        <time>2021-07-29T13:26:20Z</time>
      </trkpt>
      <trkpt lat="49.46996" lon="1.74926">
        <ele>80.41</ele>
        <time>2021-07-29T13:26:36Z</time>
      </trkpt>
      <trkpt lat="49.47216" lon="1.74697">
        <ele>81.37</ele>
        <time>2021-07-29T13:26:52Z</time>
      </trkpt>
      <trkpt lat="49.47228" lon="1.74687">
        <ele>81.37</ele>
        <time>2021-07-29T13:26:53Z</time>
      </trkpt>
      <trkpt lat="49.4724" lon="1.74678">
        <ele>81.37</ele>
        <time>2021-07-29T13:26:54Z</time>
      </trkpt>
      <trkpt lat="49.47253" lon="1.74667">
        <ele>80.89</ele>
        <time>2021-07-29T13:26:55Z</time>
      </trkpt>
      <trkpt lat="49.47295" lon="1.74652">
        <ele>80.41</ele>
        <time>2021-07-29T13:26:58Z</time>
      </trkpt>
      <trkpt lat="49.47306" lon="1.74647">
        <ele>80.41</ele>
        <time>2021-07-29T13:26:59Z</time>
      </trkpt>
      <trkpt lat="49.47316" lon="1.74637">
        <ele>80.89</ele>
        <time>2021-07-29T13:27:00Z</time>
      </trkpt>
      <trkpt lat="49.47328" lon="1.74625">
        <ele>81.37</ele>
        <time>2021-07-29T13:27:01Z</time>
      </trkpt>
      <trkpt lat="49.47337" lon="1.7461">
        <ele>80.41</ele>
        <time>2021-07-29T13:27:02Z</time>
      </trkpt>
      <trkpt lat="49.47344" lon="1.74594">
        <ele>81.37</ele>
        <time>2021-07-29T13:27:03Z</time>
      </trkpt>
      <trkpt lat="49.47359" lon="1.74564">
        <ele>80.89</ele>
        <time>2021-07-29T13:27:05Z</time>
      </trkpt>
      <trkpt lat="49.47456" lon="1.7445">
        <ele>81.37</ele>
        <time>2021-07-29T13:27:15Z</time>
      </trkpt>
      <trkpt lat="49.47598" lon="1.74301">
        <ele>83.29</ele>
        <time>2021-07-29T13:27:30Z</time>
      </trkpt>
      <trkpt lat="49.47632" lon="1.74265">
        <ele>83.77</ele>
        <time>2021-07-29T13:27:36Z</time>
      </trkpt>
      <trkpt lat="49.47638" lon="1.74259">
        <ele>83.29</ele>
        <time>2021-07-29T13:27:51Z</time>
      </trkpt>
      <trkpt lat="49.4765" lon="1.74251">
        <ele>83.77</ele>
        <time>2021-07-29T13:27:59Z</time>
      </trkpt>
      <trkpt lat="49.47654" lon="1.74248">
        <ele>83.77</ele>
        <time>2021-07-29T13:28:00Z</time>
      </trkpt>
      <trkpt lat="49.47658" lon="1.74246">
        <ele>83.77</ele>
        <time>2021-07-29T13:28:01Z</time>
      </trkpt>
      <trkpt lat="49.47662" lon="1.74243">
        <ele>83.77</ele>
        <time>2021-07-29T13:28:02Z</time>
      </trkpt>
      <trkpt lat="49.47669" lon="1.74249">
        <ele>83.77</ele>
        <time>2021-07-29T13:28:03Z</time>
      </trkpt>
      <trkpt lat="49.47673" lon="1.74248">
        <ele>83.77</ele>
        <time>2021-07-29T13:28:04Z</time>
      </trkpt>
      <trkpt lat="49.47679" lon="1.74244">
        <ele>84.25</ele>
        <time>2021-07-29T13:28:05Z</time>
      </trkpt>
      <trkpt lat="49.47678" lon="1.7423">
        <ele>84.25</ele>
        <time>2021-07-29T13:28:06Z</time>
      </trkpt>
      <trkpt lat="49.47682" lon="1.74224">
        <ele>84.25</ele>
        <time>2021-07-29T13:28:07Z</time>
      </trkpt>
      <trkpt lat="49.47687" lon="1.74218">
        <ele>84.25</ele>
        <time>2021-07-29T13:28:08Z</time>
      </trkpt>
      <trkpt lat="49.47693" lon="1.74211">
        <ele>84.25</ele>
        <time>2021-07-29T13:28:09Z</time>
      </trkpt>
      <trkpt lat="49.47776" lon="1.74117">
        <ele>85.21</ele>
        <time>2021-07-29T13:28:19Z</time>
      </trkpt>
      <trkpt lat="49.47991" lon="1.73891">
        <ele>81.85</ele>
        <time>2021-07-29T13:28:40Z</time>
      </trkpt>
      <trkpt lat="49.48062" lon="1.73814">
        <ele>84.25</ele>
        <time>2021-07-29T13:28:49Z</time>
      </trkpt>
      <trkpt lat="49.48065" lon="1.73811">
        <ele>84.73</ele>
        <time>2021-07-29T13:28:58Z</time>
      </trkpt>
      <trkpt lat="49.48081" lon="1.73795">
        <ele>85.21</ele>
        <time>2021-07-29T13:29:05Z</time>
      </trkpt>
      <trkpt lat="49.48106" lon="1.73776">
        <ele>85.69</ele>
        <time>2021-07-29T13:29:11Z</time>
      </trkpt>
      <trkpt lat="49.4811" lon="1.73773">
        <ele>86.18</ele>
        <time>2021-07-29T13:29:12Z</time>
      </trkpt>
      <trkpt lat="49.48115" lon="1.73771">
        <ele>86.18</ele>
        <time>2021-07-29T13:29:13Z</time>
      </trkpt>
      <trkpt lat="49.48124" lon="1.73766">
        <ele>86.66</ele>
        <time>2021-07-29T13:29:16Z</time>
      </trkpt>
      <trkpt lat="49.48138" lon="1.73772">
        <ele>86.66</ele>
        <time>2021-07-29T13:29:17Z</time>
      </trkpt>
      <trkpt lat="49.48139" lon="1.73754">
        <ele>86.66</ele>
        <time>2021-07-29T13:29:18Z</time>
      </trkpt>
      <trkpt lat="49.48141" lon="1.73751">
        <ele>86.66</ele>
        <time>2021-07-29T13:29:19Z</time>
      </trkpt>
      <trkpt lat="49.48145" lon="1.73744">
        <ele>86.66</ele>
        <time>2021-07-29T13:29:20Z</time>
      </trkpt>
      <trkpt lat="49.4815" lon="1.73737">
        <ele>86.18</ele>
        <time>2021-07-29T13:29:21Z</time>
      </trkpt>
      <trkpt lat="49.48155" lon="1.73729">
        <ele>86.18</ele>
        <time>2021-07-29T13:29:22Z</time>
      </trkpt>
      <trkpt lat="49.48161" lon="1.73721">
        <ele>86.18</ele>
        <time>2021-07-29T13:29:23Z</time>
      </trkpt>
      <trkpt lat="49.48167" lon="1.73713">
        <ele>86.18</ele>
        <time>2021-07-29T13:29:24Z</time>
      </trkpt>
      <trkpt lat="49.48174" lon="1.73706">
        <ele>86.66</ele>
        <time>2021-07-29T13:29:25Z</time>
      </trkpt>
      <trkpt lat="49.48254" lon="1.73616">
        <ele>86.18</ele>
        <time>2021-07-29T13:29:34Z</time>
      </trkpt>
      <trkpt lat="49.48275" lon="1.73584">
        <ele>86.18</ele>
        <time>2021-07-29T13:29:40Z</time>
      </trkpt>
      <trkpt lat="49.48288" lon="1.73558">
        <ele>86.66</ele>
        <time>2021-07-29T13:30:20Z</time>
      </trkpt>
      <trkpt lat="49.4835" lon="1.73472">
        <ele>87.14</ele>
        <time>2021-07-29T13:30:29Z</time>
      </trkpt>
      <trkpt lat="49.4841" lon="1.73388">
        <ele>85.69</ele>
        <time>2021-07-29T13:30:36Z</time>
      </trkpt>
      <trkpt lat="49.48417" lon="1.73376">
        <ele>86.18</ele>
        <time>2021-07-29T13:30:37Z</time>
      </trkpt>
      <trkpt lat="49.48422" lon="1.73362">
        <ele>86.66</ele>
        <time>2021-07-29T13:30:38Z</time>
      </trkpt>
      <trkpt lat="49.48457" lon="1.73205">
        <ele>85.21</ele>
        <time>2021-07-29T13:30:50Z</time>
      </trkpt>
      <trkpt lat="49.48503" lon="1.73002">
        <ele>85.21</ele>
        <time>2021-07-29T13:31:05Z</time>
      </trkpt>
      <trkpt lat="49.48507" lon="1.72981">
        <ele>84.73</ele>
        <time>2021-07-29T13:31:12Z</time>
      </trkpt>
      <trkpt lat="49.48514" lon="1.72949">
        <ele>84.73</ele>
        <time>2021-07-29T13:31:52Z</time>
      </trkpt>
      <trkpt lat="49.48533" lon="1.7286">
        <ele>86.18</ele>
        <time>2021-07-29T13:31:59Z</time>
      </trkpt>
      <trkpt lat="49.48555" lon="1.72757">
        <ele>86.18</ele>
        <time>2021-07-29T13:32:06Z</time>
      </trkpt>
      <trkpt lat="49.48558" lon="1.72743">
        <ele>85.69</ele>
        <time>2021-07-29T13:32:14Z</time>
      </trkpt>
      <trkpt lat="49.4856" lon="1.72734">
        <ele>85.69</ele>
        <time>2021-07-29T13:32:36Z</time>
      </trkpt>
      <trkpt lat="49.48561" lon="1.72728">
        <ele>85.69</ele>
        <time>2021-07-29T13:32:37Z</time>
      </trkpt>
      <trkpt lat="49.48568" lon="1.7263">
        <ele>86.66</ele>
        <time>2021-07-29T13:32:45Z</time>
      </trkpt>
      <trkpt lat="49.48568" lon="1.72435">
        <ele>86.18</ele>
        <time>2021-07-29T13:32:55Z</time>
      </trkpt>
      <trkpt lat="49.48559" lon="1.72089">
        <ele>90.5</ele>
        <time>2021-07-29T13:33:10Z</time>
      </trkpt>
      <trkpt lat="49.48504" lon="1.71844">
        <ele>91.94</ele>
        <time>2021-07-29T13:33:20Z</time>
      </trkpt>
      <trkpt lat="49.48457" lon="1.71724">
        <ele>92.9</ele>
        <time>2021-07-29T13:33:26Z</time>
      </trkpt>
      <trkpt lat="49.48447" lon="1.71703">
        <ele>93.87</ele>
        <time>2021-07-29T13:33:32Z</time>
      </trkpt>
      <trkpt lat="49.48434" lon="1.71677">
        <ele>94.83</ele>
        <time>2021-07-29T13:33:59Z</time>
      </trkpt>
      <trkpt lat="49.48394" lon="1.7157">
        <ele>91.94</ele>
        <time>2021-07-29T13:34:08Z</time>
      </trkpt>
      <trkpt lat="49.48358" lon="1.71394">
        <ele>90.5</ele>
        <time>2021-07-29T13:34:20Z</time>
      </trkpt>
      <trkpt lat="49.48355" lon="1.71372">
        <ele>91.94</ele>
        <time>2021-07-29T13:34:27Z</time>
      </trkpt>
      <trkpt lat="49.48353" lon="1.71326">
        <ele>91.46</ele>
        <time>2021-07-29T13:34:50Z</time>
      </trkpt>
      <trkpt lat="49.48353" lon="1.71326">
        <ele>91.46</ele>
        <time>2021-07-29T13:34:51Z</time>
      </trkpt>
      <trkpt lat="49.48381" lon="1.71151">
        <ele>91.46</ele>
        <time>2021-07-29T13:35:02Z</time>
      </trkpt>
      <trkpt lat="49.48433" lon="1.70836">
        <ele>97.23</ele>
        <time>2021-07-29T13:35:18Z</time>
      </trkpt>
      <trkpt lat="49.48492" lon="1.70499">
        <ele>106.36</ele>
        <time>2021-07-29T13:35:35Z</time>
      </trkpt>
      <trkpt lat="49.48536" lon="1.70227">
        <ele>112.61</ele>
        <time>2021-07-29T13:35:49Z</time>
      </trkpt>
      <trkpt lat="49.48539" lon="1.70211">
        <ele>112.61</ele>
        <time>2021-07-29T13:35:50Z</time>
      </trkpt>
      <trkpt lat="49.48541" lon="1.70201">
        <ele>113.09</ele>
        <time>2021-07-29T13:35:51Z</time>
      </trkpt>
      <trkpt lat="49.48543" lon="1.70192">
        <ele>113.09</ele>
        <time>2021-07-29T13:35:52Z</time>
      </trkpt>
      <trkpt lat="49.48538" lon="1.70181">
        <ele>114.05</ele>
        <time>2021-07-29T13:35:53Z</time>
      </trkpt>
      <trkpt lat="49.48533" lon="1.70177">
        <ele>114.53</ele>
        <time>2021-07-29T13:35:54Z</time>
      </trkpt>
      <trkpt lat="49.48527" lon="1.70174">
        <ele>114.53</ele>
        <time>2021-07-29T13:35:55Z</time>
      </trkpt>
      <trkpt lat="49.48519" lon="1.70162">
        <ele>114.53</ele>
        <time>2021-07-29T13:35:56Z</time>
      </trkpt>
      <trkpt lat="49.48516" lon="1.70151">
        <ele>114.53</ele>
        <time>2021-07-29T13:35:57Z</time>
      </trkpt>
      <trkpt lat="49.48484" lon="1.70022">
        <ele>115.5</ele>
        <time>2021-07-29T13:36:07Z</time>
      </trkpt>
      <trkpt lat="49.48435" lon="1.69807">
        <ele>117.9</ele>
        <time>2021-07-29T13:36:18Z</time>
      </trkpt>
      <trkpt lat="49.48358" lon="1.69496">
        <ele>123.67</ele>
        <time>2021-07-29T13:36:31Z</time>
      </trkpt>
      <trkpt lat="49.48236" lon="1.68993">
        <ele>115.98</ele>
        <time>2021-07-29T13:36:50Z</time>
      </trkpt>
      <trkpt lat="49.48071" lon="1.68307">
        <ele>117.9</ele>
        <time>2021-07-29T13:37:15Z</time>
      </trkpt>
      <trkpt lat="49.47953" lon="1.67814">
        <ele>123.19</ele>
        <time>2021-07-29T13:37:33Z</time>
      </trkpt>
      <trkpt lat="49.47846" lon="1.67374">
        <ele>117.42</ele>
        <time>2021-07-29T13:37:48Z</time>
      </trkpt>
      <trkpt lat="49.47732" lon="1.66972">
        <ele>123.19</ele>
        <time>2021-07-29T13:38:02Z</time>
      </trkpt>
      <trkpt lat="49.47511" lon="1.66563">
        <ele>133.76</ele>
        <time>2021-07-29T13:38:18Z</time>
      </trkpt>
      <trkpt lat="49.47377" lon="1.66307">
        <ele>133.28</ele>
        <time>2021-07-29T13:38:30Z</time>
      </trkpt>
      <trkpt lat="49.4737" lon="1.66279">
        <ele>133.28</ele>
        <time>2021-07-29T13:38:31Z</time>
      </trkpt>
      <trkpt lat="49.47364" lon="1.66251">
        <ele>134.72</ele>
        <time>2021-07-29T13:38:32Z</time>
      </trkpt>
      <trkpt lat="49.47295" lon="1.65699">
        <ele>151.54</ele>
        <time>2021-07-29T13:38:51Z</time>
      </trkpt>
      <trkpt lat="49.47242" lon="1.65258">
        <ele>168.85</ele>
        <time>2021-07-29T13:39:06Z</time>
      </trkpt>
      <trkpt lat="49.47241" lon="1.65233">
        <ele>173.66</ele>
        <time>2021-07-29T13:39:08Z</time>
      </trkpt>
      <trkpt lat="49.47241" lon="1.65208">
        <ele>176.54</ele>
        <time>2021-07-29T13:39:09Z</time>
      </trkpt>
      <trkpt lat="49.47242" lon="1.65186">
        <ele>178.46</ele>
        <time>2021-07-29T13:39:10Z</time>
      </trkpt>
      <trkpt lat="49.47248" lon="1.65165">
        <ele>179.42</ele>
        <time>2021-07-29T13:39:11Z</time>
      </trkpt>
      <trkpt lat="49.47255" lon="1.65142">
        <ele>179.42</ele>
        <time>2021-07-29T13:39:12Z</time>
      </trkpt>
      <trkpt lat="49.47265" lon="1.65123">
        <ele>178.94</ele>
        <time>2021-07-29T13:39:13Z</time>
      </trkpt>
      <trkpt lat="49.47276" lon="1.65104">
        <ele>178.94</ele>
        <time>2021-07-29T13:39:14Z</time>
      </trkpt>
      <trkpt lat="49.47287" lon="1.65088">
        <ele>180.38</ele>
        <time>2021-07-29T13:39:15Z</time>
      </trkpt>
      <trkpt lat="49.47302" lon="1.65075">
        <ele>181.35</ele>
        <time>2021-07-29T13:39:16Z</time>
      </trkpt>
      <trkpt lat="49.47317" lon="1.65064">
        <ele>184.23</ele>
        <time>2021-07-29T13:39:17Z</time>
      </trkpt>
      <trkpt lat="49.47378" lon="1.65026">
        <ele>189.52</ele>
        <time>2021-07-29T13:39:21Z</time>
      </trkpt>
      <trkpt lat="49.47391" lon="1.65015">
        <ele>192.4</ele>
        <time>2021-07-29T13:39:22Z</time>
      </trkpt>
      <trkpt lat="49.47404" lon="1.65001">
        <ele>193.84</ele>
        <time>2021-07-29T13:39:23Z</time>
      </trkpt>
      <trkpt lat="49.47414" lon="1.64985">
        <ele>194.32</ele>
        <time>2021-07-29T13:39:24Z</time>
      </trkpt>
      <trkpt lat="49.47422" lon="1.64966">
        <ele>195.28</ele>
        <time>2021-07-29T13:39:25Z</time>
      </trkpt>
      <trkpt lat="49.47429" lon="1.64946">
        <ele>195.28</ele>
        <time>2021-07-29T13:39:26Z</time>
      </trkpt>
      <trkpt lat="49.47434" lon="1.64922">
        <ele>196.73</ele>
        <time>2021-07-29T13:39:27Z</time>
      </trkpt>
      <trkpt lat="49.47439" lon="1.64897">
        <ele>197.69</ele>
        <time>2021-07-29T13:39:28Z</time>
      </trkpt>
      <trkpt lat="49.47445" lon="1.64797">
        <ele>201.53</ele>
        <time>2021-07-29T13:39:32Z</time>
      </trkpt>
      <trkpt lat="49.47446" lon="1.64771">
        <ele>202.49</ele>
        <time>2021-07-29T13:39:33Z</time>
      </trkpt>
      <trkpt lat="49.47442" lon="1.64746">
        <ele>202.49</ele>
        <time>2021-07-29T13:39:34Z</time>
      </trkpt>
      <trkpt lat="49.47436" lon="1.64724">
        <ele>202.98</ele>
        <time>2021-07-29T13:39:35Z</time>
      </trkpt>
      <trkpt lat="49.47425" lon="1.64706">
        <ele>203.94</ele>
        <time>2021-07-29T13:39:36Z</time>
      </trkpt>
      <trkpt lat="49.47414" lon="1.64688">
        <ele>204.42</ele>
        <time>2021-07-29T13:39:37Z</time>
      </trkpt>
      <trkpt lat="49.47237" lon="1.64428">
        <ele>220.76</ele>
        <time>2021-07-29T13:39:51Z</time>
      </trkpt>
      <trkpt lat="49.47051" lon="1.64156">
        <ele>223.16</ele>
        <time>2021-07-29T13:40:04Z</time>
      </trkpt>
      <trkpt lat="49.46803" lon="1.63762">
        <ele>221.24</ele>
        <time>2021-07-29T13:40:20Z</time>
      </trkpt>
      <trkpt lat="49.46667" lon="1.63423">
        <ele>223.16</ele>
        <time>2021-07-29T13:40:35Z</time>
      </trkpt>
      <trkpt lat="49.46662" lon="1.63398">
        <ele>222.68</ele>
        <time>2021-07-29T13:40:36Z</time>
      </trkpt>
      <trkpt lat="49.46656" lon="1.63373">
        <ele>224.12</ele>
        <time>2021-07-29T13:40:37Z</time>
      </trkpt>
      <trkpt lat="49.46608" lon="1.62991">
        <ele>220.76</ele>
        <time>2021-07-29T13:40:52Z</time>
      </trkpt>
      <trkpt lat="49.46601" lon="1.6268">
        <ele>211.15</ele>
        <time>2021-07-29T13:41:03Z</time>
      </trkpt>
      <trkpt lat="49.46615" lon="1.62034">
        <ele>197.69</ele>
        <time>2021-07-29T13:41:24Z</time>
      </trkpt>
      <trkpt lat="49.46626" lon="1.61505">
        <ele>209.7</ele>
        <time>2021-07-29T13:41:42Z</time>
      </trkpt>
      <trkpt lat="49.46644" lon="1.61064">
        <ele>213.07</ele>
        <time>2021-07-29T13:41:56Z</time>
      </trkpt>
      <trkpt lat="49.4665" lon="1.60993">
        <ele>212.59</ele>
        <time>2021-07-29T13:42:02Z</time>
      </trkpt>
      <trkpt lat="49.46665" lon="1.60857">
        <ele>210.19</ele>
        <time>2021-07-29T13:42:12Z</time>
      </trkpt>
      <trkpt lat="49.46677" lon="1.60728">
        <ele>207.78</ele>
        <time>2021-07-29T13:42:24Z</time>
      </trkpt>
      <trkpt lat="49.46683" lon="1.60576">
        <ele>202.49</ele>
        <time>2021-07-29T13:42:31Z</time>
      </trkpt>
      <trkpt lat="49.46685" lon="1.60346">
        <ele>191.92</ele>
        <time>2021-07-29T13:42:40Z</time>
      </trkpt>
      <trkpt lat="49.46687" lon="1.60029">
        <ele>191.44</ele>
        <time>2021-07-29T13:42:51Z</time>
      </trkpt>
      <trkpt lat="49.46683" lon="1.59668">
        <ele>202.49</ele>
        <time>2021-07-29T13:43:03Z</time>
      </trkpt>
      <trkpt lat="49.46682" lon="1.59642">
        <ele>203.46</ele>
        <time>2021-07-29T13:43:05Z</time>
      </trkpt>
      <trkpt lat="49.46627" lon="1.59364">
        <ele>205.38</ele>
        <time>2021-07-29T13:43:15Z</time>
      </trkpt>
      <trkpt lat="49.46536" lon="1.58899">
        <ele>204.9</ele>
        <time>2021-07-29T13:43:31Z</time>
      </trkpt>
      <trkpt lat="49.46496" lon="1.58528">
        <ele>195.77</ele>
        <time>2021-07-29T13:43:43Z</time>
      </trkpt>
      <trkpt lat="49.46466" lon="1.58098">
        <ele>196.25</ele>
        <time>2021-07-29T13:43:58Z</time>
      </trkpt>
      <trkpt lat="49.46452" lon="1.57931">
        <ele>201.05</ele>
        <time>2021-07-29T13:44:06Z</time>
      </trkpt>
      <trkpt lat="49.46437" lon="1.57735">
        <ele>202.49</ele>
        <time>2021-07-29T13:44:15Z</time>
      </trkpt>
      <trkpt lat="49.46415" lon="1.57417">
        <ele>193.36</ele>
        <time>2021-07-29T13:44:26Z</time>
      </trkpt>
      <trkpt lat="49.46369" lon="1.56813">
        <ele>195.28</ele>
        <time>2021-07-29T13:44:45Z</time>
      </trkpt>
      <trkpt lat="49.46337" lon="1.56373">
        <ele>192.88</ele>
        <time>2021-07-29T13:45:01Z</time>
      </trkpt>
      <trkpt lat="49.46288" lon="1.55681">
        <ele>187.59</ele>
        <time>2021-07-29T13:45:22Z</time>
      </trkpt>
      <trkpt lat="49.4624" lon="1.55046">
        <ele>179.42</ele>
        <time>2021-07-29T13:45:41Z</time>
      </trkpt>
      <trkpt lat="49.46209" lon="1.54618">
        <ele>178.94</ele>
        <time>2021-07-29T13:45:56Z</time>
      </trkpt>
      <trkpt lat="49.46176" lon="1.54162">
        <ele>180.38</ele>
        <time>2021-07-29T13:46:12Z</time>
      </trkpt>
      <trkpt lat="49.46139" lon="1.53651">
        <ele>179.42</ele>
        <time>2021-07-29T13:46:30Z</time>
      </trkpt>
      <trkpt lat="49.46095" lon="1.53031">
        <ele>177.02</ele>
        <time>2021-07-29T13:46:52Z</time>
      </trkpt>
      <trkpt lat="49.46059" lon="1.52563">
        <ele>178.46</ele>
        <time>2021-07-29T13:47:09Z</time>
      </trkpt>
      <trkpt lat="49.46029" lon="1.52157">
        <ele>176.06</ele>
        <time>2021-07-29T13:47:24Z</time>
      </trkpt>
      <trkpt lat="49.46011" lon="1.51927">
        <ele>175.1</ele>
        <time>2021-07-29T13:47:37Z</time>
      </trkpt>
      <trkpt lat="49.45996" lon="1.5171">
        <ele>172.69</ele>
        <time>2021-07-29T13:47:51Z</time>
      </trkpt>
      <trkpt lat="49.45994" lon="1.51687">
        <ele>172.21</ele>
        <time>2021-07-29T13:47:56Z</time>
      </trkpt>
      <trkpt lat="49.45994" lon="1.51681">
        <ele>172.21</ele>
        <time>2021-07-29T13:47:57Z</time>
      </trkpt>
      <trkpt lat="49.45994" lon="1.51674">
        <ele>171.73</ele>
        <time>2021-07-29T13:47:58Z</time>
      </trkpt>
      <trkpt lat="49.45993" lon="1.51667">
        <ele>171.73</ele>
        <time>2021-07-29T13:47:59Z</time>
      </trkpt>
      <trkpt lat="49.45992" lon="1.51659">
        <ele>171.73</ele>
        <time>2021-07-29T13:48:00Z</time>
      </trkpt>
      <trkpt lat="49.45992" lon="1.51651">
        <ele>171.73</ele>
        <time>2021-07-29T13:48:01Z</time>
      </trkpt>
      <trkpt lat="49.45991" lon="1.51641">
        <ele>171.25</ele>
        <time>2021-07-29T13:48:02Z</time>
      </trkpt>
      <trkpt lat="49.4599" lon="1.51629">
        <ele>171.25</ele>
        <time>2021-07-29T13:48:03Z</time>
      </trkpt>
      <trkpt lat="49.4599" lon="1.51617">
        <ele>171.25</ele>
        <time>2021-07-29T13:48:04Z</time>
      </trkpt>
      <trkpt lat="49.45988" lon="1.51603">
        <ele>171.25</ele>
        <time>2021-07-29T13:48:05Z</time>
      </trkpt>
      <trkpt lat="49.45976" lon="1.51407">
        <ele>170.29</ele>
        <time>2021-07-29T13:48:16Z</time>
      </trkpt>
      <trkpt lat="49.45956" lon="1.51152">
        <ele>174.62</ele>
        <time>2021-07-29T13:48:29Z</time>
      </trkpt>
      <trkpt lat="49.45951" lon="1.51063">
        <ele>177.5</ele>
        <time>2021-07-29T13:48:33Z</time>
      </trkpt>
      <trkpt lat="49.45951" lon="1.51041">
        <ele>177.5</ele>
        <time>2021-07-29T13:48:34Z</time>
      </trkpt>
      <trkpt lat="49.45953" lon="1.51018">
        <ele>177.5</ele>
        <time>2021-07-29T13:48:35Z</time>
      </trkpt>
      <trkpt lat="49.46" lon="1.50721">
        <ele>178.46</ele>
        <time>2021-07-29T13:48:47Z</time>
      </trkpt>
      <trkpt lat="49.46038" lon="1.50361">
        <ele>179.9</ele>
        <time>2021-07-29T13:48:59Z</time>
      </trkpt>
      <trkpt lat="49.46056" lon="1.49846">
        <ele>175.58</ele>
        <time>2021-07-29T13:49:16Z</time>
      </trkpt>
      <trkpt lat="49.46076" lon="1.49274">
        <ele>169.33</ele>
        <time>2021-07-29T13:49:35Z</time>
      </trkpt>
      <trkpt lat="49.46084" lon="1.48751">
        <ele>160.2</ele>
        <time>2021-07-29T13:49:52Z</time>
      </trkpt>
      <trkpt lat="49.46103" lon="1.48447">
        <ele>159.24</ele>
        <time>2021-07-29T13:50:01Z</time>
      </trkpt>
      <trkpt lat="49.46188" lon="1.48054">
        <ele>163.56</ele>
        <time>2021-07-29T13:50:16Z</time>
      </trkpt>
      <trkpt lat="49.46311" lon="1.47534">
        <ele>163.08</ele>
        <time>2021-07-29T13:50:34Z</time>
      </trkpt>
      <trkpt lat="49.46397" lon="1.47145">
        <ele>168.37</ele>
        <time>2021-07-29T13:50:48Z</time>
      </trkpt>
      <trkpt lat="49.46387" lon="1.46848">
        <ele>169.33</ele>
        <time>2021-07-29T13:50:58Z</time>
      </trkpt>
      <trkpt lat="49.46406" lon="1.46298">
        <ele>166.45</ele>
        <time>2021-07-29T13:51:16Z</time>
      </trkpt>
      <trkpt lat="49.46455" lon="1.45803">
        <ele>169.81</ele>
        <time>2021-07-29T13:51:32Z</time>
      </trkpt>
      <trkpt lat="49.4653" lon="1.45088">
        <ele>169.33</ele>
        <time>2021-07-29T13:51:56Z</time>
      </trkpt>
      <trkpt lat="49.46567" lon="1.44721">
        <ele>169.81</ele>
        <time>2021-07-29T13:52:09Z</time>
      </trkpt>
      <trkpt lat="49.46601" lon="1.44405">
        <ele>169.81</ele>
        <time>2021-07-29T13:52:22Z</time>
      </trkpt>
      <trkpt lat="49.46632" lon="1.4411">
        <ele>169.33</ele>
        <time>2021-07-29T13:52:37Z</time>
      </trkpt>
      <trkpt lat="49.46635" lon="1.44048">
        <ele>169.33</ele>
        <time>2021-07-29T13:52:40Z</time>
      </trkpt>
      <trkpt lat="49.46632" lon="1.44029">
        <ele>168.85</ele>
        <time>2021-07-29T13:52:41Z</time>
      </trkpt>
      <trkpt lat="49.46628" lon="1.4401">
        <ele>168.37</ele>
        <time>2021-07-29T13:52:42Z</time>
      </trkpt>
      <trkpt lat="49.46625" lon="1.43991">
        <ele>168.85</ele>
        <time>2021-07-29T13:52:43Z</time>
      </trkpt>
      <trkpt lat="49.46619" lon="1.43974">
        <ele>168.37</ele>
        <time>2021-07-29T13:52:44Z</time>
      </trkpt>
      <trkpt lat="49.46505" lon="1.4364">
        <ele>164.04</ele>
        <time>2021-07-29T13:53:01Z</time>
      </trkpt>
      <trkpt lat="49.46394" lon="1.43314">
        <ele>165</ele>
        <time>2021-07-29T13:53:18Z</time>
      </trkpt>
      <trkpt lat="49.46307" lon="1.43048">
        <ele>162.6</ele>
        <time>2021-07-29T13:53:30Z</time>
      </trkpt>
      <trkpt lat="49.46175" lon="1.42663">
        <ele>154.91</ele>
        <time>2021-07-29T13:53:44Z</time>
      </trkpt>
      <trkpt lat="49.46049" lon="1.42319">
        <ele>152.51</ele>
        <time>2021-07-29T13:53:58Z</time>
      </trkpt>
      <trkpt lat="49.45952" lon="1.42138">
        <ele>142.41</ele>
        <time>2021-07-29T13:54:06Z</time>
      </trkpt>
      <trkpt lat="49.45942" lon="1.42112">
        <ele>140.97</ele>
        <time>2021-07-29T13:54:07Z</time>
      </trkpt>
      <trkpt lat="49.45934" lon="1.42085">
        <ele>140.49</ele>
        <time>2021-07-29T13:54:08Z</time>
      </trkpt>
      <trkpt lat="49.45887" lon="1.41762">
        <ele>128.47</ele>
        <time>2021-07-29T13:54:19Z</time>
      </trkpt>
      <trkpt lat="49.4582" lon="1.41114">
        <ele>102.52</ele>
        <time>2021-07-29T13:54:40Z</time>
      </trkpt>
      <trkpt lat="49.45822" lon="1.41086">
        <ele>101.08</ele>
        <time>2021-07-29T13:54:41Z</time>
      </trkpt>
      <trkpt lat="49.45831" lon="1.40942">
        <ele>95.79</ele>
        <time>2021-07-29T13:54:46Z</time>
      </trkpt>
      <trkpt lat="49.45833" lon="1.40913">
        <ele>93.87</ele>
        <time>2021-07-29T13:54:47Z</time>
      </trkpt>
      <trkpt lat="49.45828" lon="1.40884">
        <ele>91.46</ele>
        <time>2021-07-29T13:54:48Z</time>
      </trkpt>
      <trkpt lat="49.45824" lon="1.40856">
        <ele>89.06</ele>
        <time>2021-07-29T13:54:49Z</time>
      </trkpt>
      <trkpt lat="49.45819" lon="1.40829">
        <ele>87.62</ele>
        <time>2021-07-29T13:54:50Z</time>
      </trkpt>
      <trkpt lat="49.45759" lon="1.40535">
        <ele>78.97</ele>
        <time>2021-07-29T13:54:59Z</time>
      </trkpt>
      <trkpt lat="49.45744" lon="1.40264">
        <ele>84.73</ele>
        <time>2021-07-29T13:55:07Z</time>
      </trkpt>
      <trkpt lat="49.45713" lon="1.40019">
        <ele>88.58</ele>
        <time>2021-07-29T13:55:15Z</time>
      </trkpt>
      <trkpt lat="49.45626" lon="1.39816">
        <ele>87.14</ele>
        <time>2021-07-29T13:55:22Z</time>
      </trkpt>
      <trkpt lat="49.45526" lon="1.39583">
        <ele>74.16</ele>
        <time>2021-07-29T13:55:32Z</time>
      </trkpt>
      <trkpt lat="49.45506" lon="1.39369">
        <ele>70.31</ele>
        <time>2021-07-29T13:55:39Z</time>
      </trkpt>
      <trkpt lat="49.45515" lon="1.39184">
        <ele>65.03</ele>
        <time>2021-07-29T13:55:46Z</time>
      </trkpt>
      <trkpt lat="49.45521" lon="1.39115">
        <ele>63.1</ele>
        <time>2021-07-29T13:55:50Z</time>
      </trkpt>
      <trkpt lat="49.45524" lon="1.39103">
        <ele>62.62</ele>
        <time>2021-07-29T13:55:51Z</time>
      </trkpt>
      <trkpt lat="49.45527" lon="1.39091">
        <ele>62.14</ele>
        <time>2021-07-29T13:55:52Z</time>
      </trkpt>
      <trkpt lat="49.45535" lon="1.39069">
        <ele>61.66</ele>
        <time>2021-07-29T13:55:54Z</time>
      </trkpt>
      <trkpt lat="49.45536" lon="1.39063">
        <ele>61.66</ele>
        <time>2021-07-29T13:55:55Z</time>
      </trkpt>
      <trkpt lat="49.45531" lon="1.39049">
        <ele>61.66</ele>
        <time>2021-07-29T13:55:56Z</time>
      </trkpt>
      <trkpt lat="49.45529" lon="1.39037">
        <ele>61.66</ele>
        <time>2021-07-29T13:55:57Z</time>
      </trkpt>
      <trkpt lat="49.45528" lon="1.39026">
        <ele>61.66</ele>
        <time>2021-07-29T13:55:58Z</time>
      </trkpt>
      <trkpt lat="49.45527" lon="1.39012">
        <ele>62.14</ele>
        <time>2021-07-29T13:55:59Z</time>
      </trkpt>
      <trkpt lat="49.45526" lon="1.38997">
        <ele>62.14</ele>
        <time>2021-07-29T13:56:00Z</time>
      </trkpt>
      <trkpt lat="49.45526" lon="1.3898">
        <ele>61.66</ele>
        <time>2021-07-29T13:56:01Z</time>
      </trkpt>
      <trkpt lat="49.45518" lon="1.38808">
        <ele>58.3</ele>
        <time>2021-07-29T13:56:09Z</time>
      </trkpt>
      <trkpt lat="49.45465" lon="1.38612">
        <ele>57.82</ele>
        <time>2021-07-29T13:56:17Z</time>
      </trkpt>
      <trkpt lat="49.45321" lon="1.38374">
        <ele>54.93</ele>
        <time>2021-07-29T13:56:27Z</time>
      </trkpt>
      <trkpt lat="49.45103" lon="1.3803">
        <ele>56.86</ele>
        <time>2021-07-29T13:56:45Z</time>
      </trkpt>
      <trkpt lat="49.44886" lon="1.37692">
        <ele>58.3</ele>
        <time>2021-07-29T13:57:02Z</time>
      </trkpt>
      <trkpt lat="49.44746" lon="1.37438">
        <ele>59.26</ele>
        <time>2021-07-29T13:57:14Z</time>
      </trkpt>
      <trkpt lat="49.44695" lon="1.37227">
        <ele>69.35</ele>
        <time>2021-07-29T13:57:21Z</time>
      </trkpt>
      <trkpt lat="49.44683" lon="1.36987">
        <ele>83.77</ele>
        <time>2021-07-29T13:57:31Z</time>
      </trkpt>
      <trkpt lat="49.44667" lon="1.3643">
        <ele>114.53</ele>
        <time>2021-07-29T13:57:51Z</time>
      </trkpt>
      <trkpt lat="49.4466" lon="1.36032">
        <ele>133.28</ele>
        <time>2021-07-29T13:58:05Z</time>
      </trkpt>
      <trkpt lat="49.44676" lon="1.35834">
        <ele>133.28</ele>
        <time>2021-07-29T13:58:12Z</time>
      </trkpt>
      <trkpt lat="49.44778" lon="1.35367">
        <ele>133.28</ele>
        <time>2021-07-29T13:58:27Z</time>
      </trkpt>
      <trkpt lat="49.44883" lon="1.34891">
        <ele>138.09</ele>
        <time>2021-07-29T13:58:43Z</time>
      </trkpt>
      <trkpt lat="49.45026" lon="1.34248">
        <ele>138.09</ele>
        <time>2021-07-29T13:59:05Z</time>
      </trkpt>
      <trkpt lat="49.45129" lon="1.33784">
        <ele>140.49</ele>
        <time>2021-07-29T13:59:23Z</time>
      </trkpt>
      <trkpt lat="49.45261" lon="1.33187">
        <ele>147.22</ele>
        <time>2021-07-29T13:59:46Z</time>
      </trkpt>
      <trkpt lat="49.45397" lon="1.32579">
        <ele>149.62</ele>
        <time>2021-07-29T14:00:06Z</time>
      </trkpt>
      <trkpt lat="49.4554" lon="1.31944">
        <ele>153.47</ele>
        <time>2021-07-29T14:00:29Z</time>
      </trkpt>
      <trkpt lat="49.45673" lon="1.31343">
        <ele>154.43</ele>
        <time>2021-07-29T14:00:49Z</time>
      </trkpt>
      <trkpt lat="49.45779" lon="1.30863">
        <ele>158.27</ele>
        <time>2021-07-29T14:01:05Z</time>
      </trkpt>
      <trkpt lat="49.45919" lon="1.30231">
        <ele>155.87</ele>
        <time>2021-07-29T14:01:27Z</time>
      </trkpt>
      <trkpt lat="49.45962" lon="1.30034">
        <ele>153.47</ele>
        <time>2021-07-29T14:01:35Z</time>
      </trkpt>
      <trkpt lat="49.45996" lon="1.29934">
        <ele>149.62</ele>
        <time>2021-07-29T14:01:42Z</time>
      </trkpt>
      <trkpt lat="49.45999" lon="1.29926">
        <ele>149.62</ele>
        <time>2021-07-29T14:01:43Z</time>
      </trkpt>
      <trkpt lat="49.46005" lon="1.29924">
        <ele>149.62</ele>
        <time>2021-07-29T14:01:44Z</time>
      </trkpt>
      <trkpt lat="49.46011" lon="1.29916">
        <ele>150.1</ele>
        <time>2021-07-29T14:01:45Z</time>
      </trkpt>
      <trkpt lat="49.46015" lon="1.29909">
        <ele>149.62</ele>
        <time>2021-07-29T14:01:46Z</time>
      </trkpt>
      <trkpt lat="49.46014" lon="1.29901">
        <ele>150.1</ele>
        <time>2021-07-29T14:01:47Z</time>
      </trkpt>
      <trkpt lat="49.46014" lon="1.29889">
        <ele>150.1</ele>
        <time>2021-07-29T14:01:48Z</time>
      </trkpt>
      <trkpt lat="49.46016" lon="1.29879">
        <ele>150.1</ele>
        <time>2021-07-29T14:01:49Z</time>
      </trkpt>
      <trkpt lat="49.46018" lon="1.2987">
        <ele>150.1</ele>
        <time>2021-07-29T14:01:50Z</time>
      </trkpt>
      <trkpt lat="49.4602" lon="1.29859">
        <ele>150.1</ele>
        <time>2021-07-29T14:01:51Z</time>
      </trkpt>
      <trkpt lat="49.46021" lon="1.29847">
        <ele>150.1</ele>
        <time>2021-07-29T14:01:52Z</time>
      </trkpt>
      <trkpt lat="49.46021" lon="1.29836">
        <ele>150.1</ele>
        <time>2021-07-29T14:01:53Z</time>
      </trkpt>
      <trkpt lat="49.46021" lon="1.29824">
        <ele>150.1</ele>
        <time>2021-07-29T14:01:54Z</time>
      </trkpt>
      <trkpt lat="49.46021" lon="1.29811">
        <ele>150.58</ele>
        <time>2021-07-29T14:01:55Z</time>
      </trkpt>
      <trkpt lat="49.46019" lon="1.29743">
        <ele>152.03</ele>
        <time>2021-07-29T14:02:00Z</time>
      </trkpt>
      <trkpt lat="49.46019" lon="1.29715">
        <ele>151.06</ele>
        <time>2021-07-29T14:02:01Z</time>
      </trkpt>
      <trkpt lat="49.46019" lon="1.29715">
        <ele>150.1</ele>
        <time>2021-07-29T14:02:02Z</time>
      </trkpt>
      <trkpt lat="49.45988" lon="1.29519">
        <ele>150.1</ele>
        <time>2021-07-29T14:02:16Z</time>
      </trkpt>
      <trkpt lat="49.45988" lon="1.29505">
        <ele>150.58</ele>
        <time>2021-07-29T14:02:17Z</time>
      </trkpt>
      <trkpt lat="49.45987" lon="1.29493">
        <ele>151.06</ele>
        <time>2021-07-29T14:02:18Z</time>
      </trkpt>
      <trkpt lat="49.45992" lon="1.29472">
        <ele>151.06</ele>
        <time>2021-07-29T14:02:19Z</time>
      </trkpt>
      <trkpt lat="49.45992" lon="1.29472">
        <ele>151.06</ele>
        <time>2021-07-29T14:02:20Z</time>
      </trkpt>
      <trkpt lat="49.45995" lon="1.29459">
        <ele>151.06</ele>
        <time>2021-07-29T14:02:21Z</time>
      </trkpt>
      <trkpt lat="49.4602" lon="1.29319">
        <ele>151.06</ele>
        <time>2021-07-29T14:02:30Z</time>
      </trkpt>
      <trkpt lat="49.46024" lon="1.29196">
        <ele>151.54</ele>
        <time>2021-07-29T14:02:38Z</time>
      </trkpt>
      <trkpt lat="49.46024" lon="1.2918">
        <ele>151.06</ele>
        <time>2021-07-29T14:02:39Z</time>
      </trkpt>
      <trkpt lat="49.46023" lon="1.29167">
        <ele>151.06</ele>
        <time>2021-07-29T14:02:40Z</time>
      </trkpt>
      <trkpt lat="49.4602" lon="1.29154">
        <ele>150.1</ele>
        <time>2021-07-29T14:02:41Z</time>
      </trkpt>
      <trkpt lat="49.46017" lon="1.2914">
        <ele>149.62</ele>
        <time>2021-07-29T14:02:42Z</time>
      </trkpt>
      <trkpt lat="49.46006" lon="1.29081">
        <ele>149.14</ele>
        <time>2021-07-29T14:02:49Z</time>
      </trkpt>
      <trkpt lat="49.4601" lon="1.29068">
        <ele>149.14</ele>
        <time>2021-07-29T14:02:51Z</time>
      </trkpt>
      <trkpt lat="49.46009" lon="1.2906">
        <ele>149.14</ele>
        <time>2021-07-29T14:02:52Z</time>
      </trkpt>
      <trkpt lat="49.46009" lon="1.29057">
        <ele>149.14</ele>
        <time>2021-07-29T14:02:53Z</time>
      </trkpt>
      <trkpt lat="49.45998" lon="1.29045">
        <ele>148.66</ele>
        <time>2021-07-29T14:02:54Z</time>
      </trkpt>
      <trkpt lat="49.45998" lon="1.29037">
        <ele>148.66</ele>
        <time>2021-07-29T14:02:55Z</time>
      </trkpt>
      <trkpt lat="49.45998" lon="1.29027">
        <ele>148.66</ele>
        <time>2021-07-29T14:02:56Z</time>
      </trkpt>
      <trkpt lat="49.45998" lon="1.29015">
        <ele>148.66</ele>
        <time>2021-07-29T14:02:57Z</time>
      </trkpt>
      <trkpt lat="49.45998" lon="1.29003">
        <ele>148.66</ele>
        <time>2021-07-29T14:02:58Z</time>
      </trkpt>
      <trkpt lat="49.45998" lon="1.2899">
        <ele>148.66</ele>
        <time>2021-07-29T14:02:59Z</time>
      </trkpt>
      <trkpt lat="49.46004" lon="1.28914">
        <ele>149.14</ele>
        <time>2021-07-29T14:03:04Z</time>
      </trkpt>
      <trkpt lat="49.46058" lon="1.2871">
        <ele>149.14</ele>
        <time>2021-07-29T14:03:15Z</time>
      </trkpt>
      <trkpt lat="49.46061" lon="1.28692">
        <ele>149.14</ele>
        <time>2021-07-29T14:03:16Z</time>
      </trkpt>
      <trkpt lat="49.46064" lon="1.28672">
        <ele>149.62</ele>
        <time>2021-07-29T14:03:17Z</time>
      </trkpt>
      <trkpt lat="49.46079" lon="1.28416">
        <ele>149.62</ele>
        <time>2021-07-29T14:03:28Z</time>
      </trkpt>
      <trkpt lat="49.46103" lon="1.27964">
        <ele>153.95</ele>
        <time>2021-07-29T14:03:44Z</time>
      </trkpt>
      <trkpt lat="49.46144" lon="1.27215">
        <ele>153.47</ele>
        <time>2021-07-29T14:04:08Z</time>
      </trkpt>
      <trkpt lat="49.46161" lon="1.26838">
        <ele>149.14</ele>
        <time>2021-07-29T14:04:19Z</time>
      </trkpt>
      <trkpt lat="49.46159" lon="1.26805">
        <ele>148.66</ele>
        <time>2021-07-29T14:04:20Z</time>
      </trkpt>
      <trkpt lat="49.46117" lon="1.26422">
        <ele>150.1</ele>
        <time>2021-07-29T14:04:33Z</time>
      </trkpt>
      <trkpt lat="49.46146" lon="1.26187">
        <ele>153.47</ele>
        <time>2021-07-29T14:04:41Z</time>
      </trkpt>
      <trkpt lat="49.46199" lon="1.25841">
        <ele>158.75</ele>
        <time>2021-07-29T14:04:54Z</time>
      </trkpt>
      <trkpt lat="49.46213" lon="1.25743">
        <ele>157.31</ele>
        <time>2021-07-29T14:05:00Z</time>
      </trkpt>
      <trkpt lat="49.46218" lon="1.25723">
        <ele>156.83</ele>
        <time>2021-07-29T14:05:07Z</time>
      </trkpt>
      <trkpt lat="49.46222" lon="1.25688">
        <ele>156.35</ele>
        <time>2021-07-29T14:05:16Z</time>
      </trkpt>
      <trkpt lat="49.46225" lon="1.25671">
        <ele>155.87</ele>
        <time>2021-07-29T14:05:30Z</time>
      </trkpt>
      <trkpt lat="49.46225" lon="1.25671">
        <ele>155.39</ele>
        <time>2021-07-29T14:12:58Z</time>
      </trkpt>
      <trkpt lat="49.46227" lon="1.25655">
        <ele>155.39</ele>
        <time>2021-07-29T14:13:29Z</time>
      </trkpt>
      <trkpt lat="49.46228" lon="1.25644">
        <ele>155.39</ele>
        <time>2021-07-29T14:13:32Z</time>
      </trkpt>
      <trkpt lat="49.4623" lon="1.25631">
        <ele>155.39</ele>
        <time>2021-07-29T14:13:33Z</time>
      </trkpt>
      <trkpt lat="49.46232" lon="1.25623">
        <ele>154.91</ele>
        <time>2021-07-29T14:13:34Z</time>
      </trkpt>
      <trkpt lat="49.46247" lon="1.25528">
        <ele>151.06</ele>
        <time>2021-07-29T14:13:42Z</time>
      </trkpt>
      <trkpt lat="49.46275" lon="1.25331">
        <ele>147.7</ele>
        <time>2021-07-29T14:13:52Z</time>
      </trkpt>
      <trkpt lat="49.4632" lon="1.25026">
        <ele>147.7</ele>
        <time>2021-07-29T14:14:04Z</time>
      </trkpt>
      <trkpt lat="49.46365" lon="1.24662">
        <ele>152.99</ele>
        <time>2021-07-29T14:14:18Z</time>
      </trkpt>
      <trkpt lat="49.46339" lon="1.24367">
        <ele>150.1</ele>
        <time>2021-07-29T14:14:28Z</time>
      </trkpt>
      <trkpt lat="49.46275" lon="1.23723">
        <ele>149.62</ele>
        <time>2021-07-29T14:14:49Z</time>
      </trkpt>
      <trkpt lat="49.46214" lon="1.23119">
        <ele>142.89</ele>
        <time>2021-07-29T14:15:09Z</time>
      </trkpt>
      <trkpt lat="49.46191" lon="1.22891">
        <ele>140.97</ele>
        <time>2021-07-29T14:15:18Z</time>
      </trkpt>
      <trkpt lat="49.46182" lon="1.22791">
        <ele>139.53</ele>
        <time>2021-07-29T14:15:25Z</time>
      </trkpt>
      <trkpt lat="49.46181" lon="1.22779">
        <ele>139.05</ele>
        <time>2021-07-29T14:15:27Z</time>
      </trkpt>
      <trkpt lat="49.4618" lon="1.22774">
        <ele>139.53</ele>
        <time>2021-07-29T14:15:28Z</time>
      </trkpt>
      <trkpt lat="49.46191" lon="1.2276">
        <ele>139.53</ele>
        <time>2021-07-29T14:15:29Z</time>
      </trkpt>
      <trkpt lat="49.46191" lon="1.2276">
        <ele>139.53</ele>
        <time>2021-07-29T14:15:30Z</time>
      </trkpt>
      <trkpt lat="49.46192" lon="1.22752">
        <ele>139.53</ele>
        <time>2021-07-29T14:15:31Z</time>
      </trkpt>
      <trkpt lat="49.46185" lon="1.22732">
        <ele>139.53</ele>
        <time>2021-07-29T14:15:32Z</time>
      </trkpt>
      <trkpt lat="49.46185" lon="1.22731">
        <ele>139.05</ele>
        <time>2021-07-29T14:15:33Z</time>
      </trkpt>
      <trkpt lat="49.46166" lon="1.22731">
        <ele>139.05</ele>
        <time>2021-07-29T14:15:34Z</time>
      </trkpt>
      <trkpt lat="49.46166" lon="1.22731">
        <ele>139.05</ele>
        <time>2021-07-29T14:15:35Z</time>
      </trkpt>
      <trkpt lat="49.46161" lon="1.22723">
        <ele>139.53</ele>
        <time>2021-07-29T14:15:36Z</time>
      </trkpt>
      <trkpt lat="49.46155" lon="1.22713">
        <ele>140.01</ele>
        <time>2021-07-29T14:15:37Z</time>
      </trkpt>
      <trkpt lat="49.46144" lon="1.22691">
        <ele>140.01</ele>
        <time>2021-07-29T14:15:38Z</time>
      </trkpt>
      <trkpt lat="49.46077" lon="1.22571">
        <ele>143.85</ele>
        <time>2021-07-29T14:15:48Z</time>
      </trkpt>
      <trkpt lat="49.45936" lon="1.22325">
        <ele>149.62</ele>
        <time>2021-07-29T14:16:03Z</time>
      </trkpt>
      <trkpt lat="49.45755" lon="1.22002">
        <ele>155.39</ele>
        <time>2021-07-29T14:16:20Z</time>
      </trkpt>
      <trkpt lat="49.45577" lon="1.21688">
        <ele>163.56</ele>
        <time>2021-07-29T14:16:37Z</time>
      </trkpt>
      <trkpt lat="49.45488" lon="1.21533">
        <ele>164.04</ele>
        <time>2021-07-29T14:16:49Z</time>
      </trkpt>
      <trkpt lat="49.4535" lon="1.2131">
        <ele>160.68</ele>
        <time>2021-07-29T14:17:05Z</time>
      </trkpt>
      <trkpt lat="49.45184" lon="1.21041">
        <ele>159.24</ele>
        <time>2021-07-29T14:17:22Z</time>
      </trkpt>
      <trkpt lat="49.45046" lon="1.20819">
        <ele>156.35</ele>
        <time>2021-07-29T14:17:34Z</time>
      </trkpt>
      <trkpt lat="49.44808" lon="1.20445">
        <ele>160.68</ele>
        <time>2021-07-29T14:17:52Z</time>
      </trkpt>
      <trkpt lat="49.44677" lon="1.20308">
        <ele>159.24</ele>
        <time>2021-07-29T14:18:01Z</time>
      </trkpt>
      <trkpt lat="49.44664" lon="1.20293">
        <ele>158.75</ele>
        <time>2021-07-29T14:18:02Z</time>
      </trkpt>
      <trkpt lat="49.44652" lon="1.20274">
        <ele>158.27</ele>
        <time>2021-07-29T14:18:03Z</time>
      </trkpt>
      <trkpt lat="49.44531" lon="1.20048">
        <ele>152.99</ele>
        <time>2021-07-29T14:18:15Z</time>
      </trkpt>
      <trkpt lat="49.4439" lon="1.19836">
        <ele>144.82</ele>
        <time>2021-07-29T14:18:28Z</time>
      </trkpt>
      <trkpt lat="49.44381" lon="1.19817">
        <ele>144.34</ele>
        <time>2021-07-29T14:18:29Z</time>
      </trkpt>
      <trkpt lat="49.44373" lon="1.19797">
        <ele>143.85</ele>
        <time>2021-07-29T14:18:30Z</time>
      </trkpt>
      <trkpt lat="49.44366" lon="1.19774">
        <ele>143.85</ele>
        <time>2021-07-29T14:18:31Z</time>
      </trkpt>
      <trkpt lat="49.4436" lon="1.1975">
        <ele>143.85</ele>
        <time>2021-07-29T14:18:32Z</time>
      </trkpt>
      <trkpt lat="49.44282" lon="1.19376">
        <ele>147.7</ele>
        <time>2021-07-29T14:18:48Z</time>
      </trkpt>
      <trkpt lat="49.44257" lon="1.19281">
        <ele>148.18</ele>
        <time>2021-07-29T14:18:53Z</time>
      </trkpt>
      <trkpt lat="49.44253" lon="1.19267">
        <ele>148.18</ele>
        <time>2021-07-29T14:18:54Z</time>
      </trkpt>
      <trkpt lat="49.44255" lon="1.19249">
        <ele>148.66</ele>
        <time>2021-07-29T14:18:55Z</time>
      </trkpt>
      <trkpt lat="49.44253" lon="1.1923">
        <ele>148.66</ele>
        <time>2021-07-29T14:18:56Z</time>
      </trkpt>
      <trkpt lat="49.44249" lon="1.19221">
        <ele>148.66</ele>
        <time>2021-07-29T14:18:57Z</time>
      </trkpt>
      <trkpt lat="49.44241" lon="1.19203">
        <ele>148.66</ele>
        <time>2021-07-29T14:18:58Z</time>
      </trkpt>
      <trkpt lat="49.44239" lon="1.19187">
        <ele>149.14</ele>
        <time>2021-07-29T14:18:59Z</time>
      </trkpt>
      <trkpt lat="49.4422" lon="1.18974">
        <ele>148.66</ele>
        <time>2021-07-29T14:19:10Z</time>
      </trkpt>
      <trkpt lat="49.44183" lon="1.18673">
        <ele>145.78</ele>
        <time>2021-07-29T14:19:24Z</time>
      </trkpt>
      <trkpt lat="49.44168" lon="1.18426">
        <ele>140.97</ele>
        <time>2021-07-29T14:19:36Z</time>
      </trkpt>
      <trkpt lat="49.44183" lon="1.18171">
        <ele>137.61</ele>
        <time>2021-07-29T14:19:47Z</time>
      </trkpt>
      <trkpt lat="49.44184" lon="1.1793">
        <ele>135.68</ele>
        <time>2021-07-29T14:19:57Z</time>
      </trkpt>
      <trkpt lat="49.44197" lon="1.17753">
        <ele>136.16</ele>
        <time>2021-07-29T14:20:05Z</time>
      </trkpt>
      <trkpt lat="49.44202" lon="1.1774">
        <ele>136.16</ele>
        <time>2021-07-29T14:20:06Z</time>
      </trkpt>
      <trkpt lat="49.44208" lon="1.17728">
        <ele>135.68</ele>
        <time>2021-07-29T14:20:07Z</time>
      </trkpt>
      <trkpt lat="49.44214" lon="1.17718">
        <ele>136.16</ele>
        <time>2021-07-29T14:20:08Z</time>
      </trkpt>
      <trkpt lat="49.44225" lon="1.1771">
        <ele>136.16</ele>
        <time>2021-07-29T14:20:09Z</time>
      </trkpt>
      <trkpt lat="49.44236" lon="1.17702">
        <ele>136.16</ele>
        <time>2021-07-29T14:20:10Z</time>
      </trkpt>
      <trkpt lat="49.44247" lon="1.17694">
        <ele>135.2</ele>
        <time>2021-07-29T14:20:11Z</time>
      </trkpt>
      <trkpt lat="49.44366" lon="1.17624">
        <ele>127.51</ele>
        <time>2021-07-29T14:20:20Z</time>
      </trkpt>
      <trkpt lat="49.44471" lon="1.17567">
        <ele>119.82</ele>
        <time>2021-07-29T14:20:27Z</time>
      </trkpt>
      <trkpt lat="49.44483" lon="1.17555">
        <ele>119.34</ele>
        <time>2021-07-29T14:20:28Z</time>
      </trkpt>
      <trkpt lat="49.44495" lon="1.1754">
        <ele>118.38</ele>
        <time>2021-07-29T14:20:29Z</time>
      </trkpt>
      <trkpt lat="49.44504" lon="1.17522">
        <ele>117.9</ele>
        <time>2021-07-29T14:20:30Z</time>
      </trkpt>
      <trkpt lat="49.44509" lon="1.17501">
        <ele>116.94</ele>
        <time>2021-07-29T14:20:31Z</time>
      </trkpt>
      <trkpt lat="49.44512" lon="1.17478">
        <ele>116.46</ele>
        <time>2021-07-29T14:20:32Z</time>
      </trkpt>
      <trkpt lat="49.44514" lon="1.17455">
        <ele>115.98</ele>
        <time>2021-07-29T14:20:33Z</time>
      </trkpt>
      <trkpt lat="49.44523" lon="1.17385">
        <ele>112.61</ele>
        <time>2021-07-29T14:20:36Z</time>
      </trkpt>
      <trkpt lat="49.44528" lon="1.17362">
        <ele>112.13</ele>
        <time>2021-07-29T14:20:37Z</time>
      </trkpt>
      <trkpt lat="49.44535" lon="1.17341">
        <ele>111.65</ele>
        <time>2021-07-29T14:20:38Z</time>
      </trkpt>
      <trkpt lat="49.44543" lon="1.17322">
        <ele>110.69</ele>
        <time>2021-07-29T14:20:39Z</time>
      </trkpt>
      <trkpt lat="49.44554" lon="1.17308">
        <ele>110.21</ele>
        <time>2021-07-29T14:20:40Z</time>
      </trkpt>
      <trkpt lat="49.44566" lon="1.17293">
        <ele>109.73</ele>
        <time>2021-07-29T14:20:41Z</time>
      </trkpt>
      <trkpt lat="49.44592" lon="1.17264">
        <ele>107.32</ele>
        <time>2021-07-29T14:20:43Z</time>
      </trkpt>
      <trkpt lat="49.44603" lon="1.17246">
        <ele>105.4</ele>
        <time>2021-07-29T14:20:44Z</time>
      </trkpt>
      <trkpt lat="49.4461" lon="1.17229">
        <ele>103.48</ele>
        <time>2021-07-29T14:20:45Z</time>
      </trkpt>
      <trkpt lat="49.44614" lon="1.1721">
        <ele>102.04</ele>
        <time>2021-07-29T14:20:46Z</time>
      </trkpt>
      <trkpt lat="49.44618" lon="1.17191">
        <ele>102.04</ele>
        <time>2021-07-29T14:20:47Z</time>
      </trkpt>
      <trkpt lat="49.44619" lon="1.1717">
        <ele>102.04</ele>
        <time>2021-07-29T14:20:48Z</time>
      </trkpt>
      <trkpt lat="49.44616" lon="1.1715">
        <ele>102.04</ele>
        <time>2021-07-29T14:20:49Z</time>
      </trkpt>
      <trkpt lat="49.44609" lon="1.17133">
        <ele>101.56</ele>
        <time>2021-07-29T14:20:50Z</time>
      </trkpt>
      <trkpt lat="49.44601" lon="1.17118">
        <ele>102.04</ele>
        <time>2021-07-29T14:20:51Z</time>
      </trkpt>
      <trkpt lat="49.44591" lon="1.17103">
        <ele>101.56</ele>
        <time>2021-07-29T14:20:52Z</time>
      </trkpt>
      <trkpt lat="49.44485" lon="1.16947">
        <ele>94.35</ele>
        <time>2021-07-29T14:21:01Z</time>
      </trkpt>
      <trkpt lat="49.44395" lon="1.16728">
        <ele>86.66</ele>
        <time>2021-07-29T14:21:11Z</time>
      </trkpt>
      <trkpt lat="49.44318" lon="1.16452">
        <ele>79.45</ele>
        <time>2021-07-29T14:21:22Z</time>
      </trkpt>
      <trkpt lat="49.44248" lon="1.16172">
        <ele>72.72</ele>
        <time>2021-07-29T14:21:37Z</time>
      </trkpt>
      <trkpt lat="49.44225" lon="1.16009">
        <ele>63.58</ele>
        <time>2021-07-29T14:21:47Z</time>
      </trkpt>
      <trkpt lat="49.44225" lon="1.1599">
        <ele>62.62</ele>
        <time>2021-07-29T14:21:48Z</time>
      </trkpt>
      <trkpt lat="49.44227" lon="1.15972">
        <ele>61.66</ele>
        <time>2021-07-29T14:21:49Z</time>
      </trkpt>
      <trkpt lat="49.44231" lon="1.15953">
        <ele>61.66</ele>
        <time>2021-07-29T14:21:50Z</time>
      </trkpt>
      <trkpt lat="49.4424" lon="1.15913">
        <ele>61.66</ele>
        <time>2021-07-29T14:21:51Z</time>
      </trkpt>
      <trkpt lat="49.4424" lon="1.15913">
        <ele>62.14</ele>
        <time>2021-07-29T14:21:52Z</time>
      </trkpt>
      <trkpt lat="49.44305" lon="1.15711">
        <ele>55.41</ele>
        <time>2021-07-29T14:22:03Z</time>
      </trkpt>
      <trkpt lat="49.44319" lon="1.15684">
        <ele>54.45</ele>
        <time>2021-07-29T14:22:04Z</time>
      </trkpt>
      <trkpt lat="49.44319" lon="1.15684">
        <ele>53.97</ele>
        <time>2021-07-29T14:22:05Z</time>
      </trkpt>
      <trkpt lat="49.44329" lon="1.15672">
        <ele>53.97</ele>
        <time>2021-07-29T14:22:06Z</time>
      </trkpt>
      <trkpt lat="49.44339" lon="1.15659">
        <ele>53.49</ele>
        <time>2021-07-29T14:22:07Z</time>
      </trkpt>
      <trkpt lat="49.44415" lon="1.15589">
        <ele>49.16</ele>
        <time>2021-07-29T14:22:14Z</time>
      </trkpt>
      <trkpt lat="49.44425" lon="1.15576">
        <ele>48.2</ele>
        <time>2021-07-29T14:22:15Z</time>
      </trkpt>
      <trkpt lat="49.44469" lon="1.15482">
        <ele>42.92</ele>
        <time>2021-07-29T14:22:21Z</time>
      </trkpt>
      <trkpt lat="49.44475" lon="1.15466">
        <ele>42.44</ele>
        <time>2021-07-29T14:22:22Z</time>
      </trkpt>
      <trkpt lat="49.4448" lon="1.15446">
        <ele>41.47</ele>
        <time>2021-07-29T14:22:23Z</time>
      </trkpt>
      <trkpt lat="49.44482" lon="1.15425">
        <ele>41.47</ele>
        <time>2021-07-29T14:22:24Z</time>
      </trkpt>
      <trkpt lat="49.44479" lon="1.15405">
        <ele>41.95</ele>
        <time>2021-07-29T14:22:25Z</time>
      </trkpt>
      <trkpt lat="49.44476" lon="1.15387">
        <ele>41.47</ele>
        <time>2021-07-29T14:22:26Z</time>
      </trkpt>
      <trkpt lat="49.44467" lon="1.15368">
        <ele>40.99</ele>
        <time>2021-07-29T14:22:27Z</time>
      </trkpt>
      <trkpt lat="49.44449" lon="1.15343">
        <ele>40.03</ele>
        <time>2021-07-29T14:22:28Z</time>
      </trkpt>
      <trkpt lat="49.44449" lon="1.15343">
        <ele>39.07</ele>
        <time>2021-07-29T14:22:29Z</time>
      </trkpt>
      <trkpt lat="49.44437" lon="1.15333">
        <ele>37.63</ele>
        <time>2021-07-29T14:22:30Z</time>
      </trkpt>
      <trkpt lat="49.44424" lon="1.15322">
        <ele>37.15</ele>
        <time>2021-07-29T14:22:31Z</time>
      </trkpt>
      <trkpt lat="49.4423" lon="1.15189">
        <ele>35.71</ele>
        <time>2021-07-29T14:22:45Z</time>
      </trkpt>
      <trkpt lat="49.44003" lon="1.15046">
        <ele>31.86</ele>
        <time>2021-07-29T14:23:01Z</time>
      </trkpt>
      <trkpt lat="49.43896" lon="1.14993">
        <ele>28.02</ele>
        <time>2021-07-29T14:23:09Z</time>
      </trkpt>
      <trkpt lat="49.43847" lon="1.14974">
        <ele>24.17</ele>
        <time>2021-07-29T14:23:14Z</time>
      </trkpt>
      <trkpt lat="49.43837" lon="1.14966">
        <ele>24.17</ele>
        <time>2021-07-29T14:23:15Z</time>
      </trkpt>
      <trkpt lat="49.43828" lon="1.14958">
        <ele>23.21</ele>
        <time>2021-07-29T14:23:16Z</time>
      </trkpt>
      <trkpt lat="49.4382" lon="1.14948">
        <ele>21.77</ele>
        <time>2021-07-29T14:23:17Z</time>
      </trkpt>
      <trkpt lat="49.43812" lon="1.14935">
        <ele>20.81</ele>
        <time>2021-07-29T14:23:18Z</time>
      </trkpt>
      <trkpt lat="49.43804" lon="1.14922">
        <ele>18.4</ele>
        <time>2021-07-29T14:23:19Z</time>
      </trkpt>
      <trkpt lat="49.43799" lon="1.14907">
        <ele>16</ele>
        <time>2021-07-29T14:23:20Z</time>
      </trkpt>
      <trkpt lat="49.43796" lon="1.14892">
        <ele>16</ele>
        <time>2021-07-29T14:23:21Z</time>
      </trkpt>
      <trkpt lat="49.43795" lon="1.14884">
        <ele>16</ele>
        <time>2021-07-29T14:23:22Z</time>
      </trkpt>
      <trkpt lat="49.43794" lon="1.14879">
        <ele>16.48</ele>
        <time>2021-07-29T14:23:23Z</time>
      </trkpt>
      <trkpt lat="49.43794" lon="1.14879">
        <ele>16.48</ele>
        <time>2021-07-29T14:23:42Z</time>
      </trkpt>
      <trkpt lat="49.4379" lon="1.1486">
        <ele>16.48</ele>
        <time>2021-07-29T14:23:51Z</time>
      </trkpt>
      <trkpt lat="49.4379" lon="1.14855">
        <ele>16</ele>
        <time>2021-07-29T14:23:52Z</time>
      </trkpt>
      <trkpt lat="49.43794" lon="1.14828">
        <ele>15.52</ele>
        <time>2021-07-29T14:23:55Z</time>
      </trkpt>
      <trkpt lat="49.438" lon="1.14775">
        <ele>13.12</ele>
        <time>2021-07-29T14:24:02Z</time>
      </trkpt>
      <trkpt lat="49.43803" lon="1.14751">
        <ele>12.15</ele>
        <time>2021-07-29T14:24:49Z</time>
      </trkpt>
      <trkpt lat="49.43805" lon="1.14626">
        <ele>12.15</ele>
        <time>2021-07-29T14:24:57Z</time>
      </trkpt>
      <trkpt lat="49.43781" lon="1.14429">
        <ele>11.67</ele>
        <time>2021-07-29T14:25:09Z</time>
      </trkpt>
      <trkpt lat="49.43778" lon="1.14413">
        <ele>11.67</ele>
        <time>2021-07-29T14:25:17Z</time>
      </trkpt>
      <trkpt lat="49.4377" lon="1.14376">
        <ele>11.67</ele>
        <time>2021-07-29T14:25:42Z</time>
      </trkpt>
      <trkpt lat="49.43742" lon="1.14293">
        <ele>11.19</ele>
        <time>2021-07-29T14:25:51Z</time>
      </trkpt>
      <trkpt lat="49.43737" lon="1.14284">
        <ele>11.19</ele>
        <time>2021-07-29T14:25:52Z</time>
      </trkpt>
      <trkpt lat="49.43731" lon="1.14276">
        <ele>11.19</ele>
        <time>2021-07-29T14:25:53Z</time>
      </trkpt>
      <trkpt lat="49.43724" lon="1.14267">
        <ele>12.15</ele>
        <time>2021-07-29T14:25:54Z</time>
      </trkpt>
      <trkpt lat="49.43707" lon="1.1425">
        <ele>11.67</ele>
        <time>2021-07-29T14:25:55Z</time>
      </trkpt>
      <trkpt lat="49.43648" lon="1.14187">
        <ele>10.23</ele>
        <time>2021-07-29T14:26:05Z</time>
      </trkpt>
      <trkpt lat="49.43648" lon="1.14187">
        <ele>11.19</ele>
        <time>2021-07-29T14:26:20Z</time>
      </trkpt>
      <trkpt lat="49.43628" lon="1.1415">
        <ele>10.71</ele>
        <time>2021-07-29T14:26:44Z</time>
      </trkpt>
      <trkpt lat="49.43623" lon="1.14141">
        <ele>9.75</ele>
        <time>2021-07-29T14:26:46Z</time>
      </trkpt>
      <trkpt lat="49.43618" lon="1.1411">
        <ele>8.79</ele>
        <time>2021-07-29T14:26:47Z</time>
      </trkpt>
      <trkpt lat="49.43615" lon="1.14093">
        <ele>7.35</ele>
        <time>2021-07-29T14:26:48Z</time>
      </trkpt>
      <trkpt lat="49.43615" lon="1.14093">
        <ele>7.35</ele>
        <time>2021-07-29T14:26:49Z</time>
      </trkpt>
      <trkpt lat="49.43612" lon="1.14076">
        <ele>7.35</ele>
        <time>2021-07-29T14:26:50Z</time>
      </trkpt>
      <trkpt lat="49.4361" lon="1.14059">
        <ele>7.35</ele>
        <time>2021-07-29T14:26:51Z</time>
      </trkpt>
      <trkpt lat="49.43611" lon="1.14042">
        <ele>7.35</ele>
        <time>2021-07-29T14:26:52Z</time>
      </trkpt>
      <trkpt lat="49.43631" lon="1.1378">
        <ele>6.39</ele>
        <time>2021-07-29T14:27:06Z</time>
      </trkpt>
      <trkpt lat="49.43643" lon="1.13539">
        <ele>5.42</ele>
        <time>2021-07-29T14:27:19Z</time>
      </trkpt>
      <trkpt lat="49.43668" lon="1.13206">
        <ele>3.98</ele>
        <time>2021-07-29T14:27:34Z</time>
      </trkpt>
      <trkpt lat="49.43681" lon="1.1294">
        <ele>3.5</ele>
        <time>2021-07-29T14:27:47Z</time>
      </trkpt>
      <trkpt lat="49.43685" lon="1.12864">
        <ele>3.5</ele>
        <time>2021-07-29T14:27:55Z</time>
      </trkpt>
      <trkpt lat="49.43686" lon="1.12764">
        <ele>3.02</ele>
        <time>2021-07-29T14:28:04Z</time>
      </trkpt>
      <trkpt lat="49.43685" lon="1.12661">
        <ele>2.54</ele>
        <time>2021-07-29T14:28:13Z</time>
      </trkpt>
      <trkpt lat="49.43693" lon="1.12562">
        <ele>3.02</ele>
        <time>2021-07-29T14:28:22Z</time>
      </trkpt>
      <trkpt lat="49.43722" lon="1.12483">
        <ele>2.54</ele>
        <time>2021-07-29T14:28:30Z</time>
      </trkpt>
      <trkpt lat="49.43767" lon="1.12425">
        <ele>0.14</ele>
        <time>2021-07-29T14:28:38Z</time>
      </trkpt>
      <trkpt lat="49.43804" lon="1.12387">
        <ele>0.14</ele>
        <time>2021-07-29T14:28:42Z</time>
      </trkpt>
      <trkpt lat="49.43812" lon="1.12376">
        <ele>-0.34</ele>
        <time>2021-07-29T14:28:43Z</time>
      </trkpt>
      <trkpt lat="49.4382" lon="1.12365">
        <ele>-0.82</ele>
        <time>2021-07-29T14:28:44Z</time>
      </trkpt>
      <trkpt lat="49.43835" lon="1.1234">
        <ele>-0.82</ele>
        <time>2021-07-29T14:28:45Z</time>
      </trkpt>
      <trkpt lat="49.43835" lon="1.1234">
        <ele>-0.34</ele>
        <time>2021-07-29T14:28:46Z</time>
      </trkpt>
      <trkpt lat="49.4384" lon="1.12323">
        <ele>0.14</ele>
        <time>2021-07-29T14:28:47Z</time>
      </trkpt>
      <trkpt lat="49.43841" lon="1.12305">
        <ele>0.14</ele>
        <time>2021-07-29T14:28:48Z</time>
      </trkpt>
      <trkpt lat="49.43843" lon="1.12286">
        <ele>0.62</ele>
        <time>2021-07-29T14:28:49Z</time>
      </trkpt>
      <trkpt lat="49.43845" lon="1.12268">
        <ele>1.1</ele>
        <time>2021-07-29T14:28:50Z</time>
      </trkpt>
      <trkpt lat="49.43863" lon="1.12125">
        <ele>3.02</ele>
        <time>2021-07-29T14:28:58Z</time>
      </trkpt>
      <trkpt lat="49.4389" lon="1.11931">
        <ele>3.5</ele>
        <time>2021-07-29T14:29:07Z</time>
      </trkpt>
      <trkpt lat="49.43893" lon="1.11619">
        <ele>3.5</ele>
        <time>2021-07-29T14:29:20Z</time>
      </trkpt>
      <trkpt lat="49.43896" lon="1.11363">
        <ele>8.79</ele>
        <time>2021-07-29T14:29:31Z</time>
      </trkpt>
      <trkpt lat="49.4389" lon="1.11326">
        <ele>9.75</ele>
        <time>2021-07-29T14:29:33Z</time>
      </trkpt>
      <trkpt lat="49.43884" lon="1.11308">
        <ele>10.23</ele>
        <time>2021-07-29T14:29:34Z</time>
      </trkpt>
      <trkpt lat="49.43874" lon="1.11273">
        <ele>10.71</ele>
        <time>2021-07-29T14:29:35Z</time>
      </trkpt>
      <trkpt lat="49.43869" lon="1.11257">
        <ele>11.19</ele>
        <time>2021-07-29T14:29:36Z</time>
      </trkpt>
      <trkpt lat="49.43862" lon="1.11242">
        <ele>12.15</ele>
        <time>2021-07-29T14:29:37Z</time>
      </trkpt>
      <trkpt lat="49.43853" lon="1.11227">
        <ele>12.15</ele>
        <time>2021-07-29T14:29:38Z</time>
      </trkpt>
      <trkpt lat="49.43776" lon="1.11115">
        <ele>12.63</ele>
        <time>2021-07-29T14:29:47Z</time>
      </trkpt>
      <trkpt lat="49.43697" lon="1.10943">
        <ele>8.79</ele>
        <time>2021-07-29T14:29:56Z</time>
      </trkpt>
      <trkpt lat="49.43593" lon="1.106">
        <ele>18.88</ele>
        <time>2021-07-29T14:30:11Z</time>
      </trkpt>
      <trkpt lat="49.43589" lon="1.10577">
        <ele>11.19</ele>
        <time>2021-07-29T14:30:17Z</time>
      </trkpt>
      <trkpt lat="49.43586" lon="1.10569">
        <ele>12.15</ele>
        <time>2021-07-29T14:30:18Z</time>
      </trkpt>
      <trkpt lat="49.43583" lon="1.10562">
        <ele>12.63</ele>
        <time>2021-07-29T14:30:19Z</time>
      </trkpt>
      <trkpt lat="49.43581" lon="1.10556">
        <ele>12.63</ele>
        <time>2021-07-29T14:30:20Z</time>
      </trkpt>
      <trkpt lat="49.43575" lon="1.10545">
        <ele>13.12</ele>
        <time>2021-07-29T14:30:21Z</time>
      </trkpt>
      <trkpt lat="49.43575" lon="1.10545">
        <ele>13.12</ele>
        <time>2021-07-29T14:30:22Z</time>
      </trkpt>
      <trkpt lat="49.4357" lon="1.1054">
        <ele>13.6</ele>
        <time>2021-07-29T14:30:23Z</time>
      </trkpt>
      <trkpt lat="49.43555" lon="1.10523">
        <ele>16</ele>
        <time>2021-07-29T14:30:31Z</time>
      </trkpt>
      <trkpt lat="49.4355" lon="1.10519">
        <ele>15.52</ele>
        <time>2021-07-29T14:30:48Z</time>
      </trkpt>
      <trkpt lat="49.43544" lon="1.10512">
        <ele>15.04</ele>
        <time>2021-07-29T14:31:30Z</time>
      </trkpt>
      <trkpt lat="49.43541" lon="1.10509">
        <ele>15.04</ele>
        <time>2021-07-29T14:31:31Z</time>
      </trkpt>
      <trkpt lat="49.43537" lon="1.10505">
        <ele>14.56</ele>
        <time>2021-07-29T14:31:32Z</time>
      </trkpt>
      <trkpt lat="49.43533" lon="1.10501">
        <ele>14.56</ele>
        <time>2021-07-29T14:31:33Z</time>
      </trkpt>
      <trkpt lat="49.43529" lon="1.10496">
        <ele>14.56</ele>
        <time>2021-07-29T14:31:34Z</time>
      </trkpt>
      <trkpt lat="49.43526" lon="1.10489">
        <ele>14.08</ele>
        <time>2021-07-29T14:31:35Z</time>
      </trkpt>
      <trkpt lat="49.43519" lon="1.10479">
        <ele>13.12</ele>
        <time>2021-07-29T14:31:36Z</time>
      </trkpt>
      <trkpt lat="49.4352" lon="1.1047">
        <ele>12.15</ele>
        <time>2021-07-29T14:31:37Z</time>
      </trkpt>
      <trkpt lat="49.43521" lon="1.10459">
        <ele>12.15</ele>
        <time>2021-07-29T14:31:38Z</time>
      </trkpt>
      <trkpt lat="49.43548" lon="1.10337">
        <ele>7.35</ele>
        <time>2021-07-29T14:31:46Z</time>
      </trkpt>
      <trkpt lat="49.43615" lon="1.10107">
        <ele>3.98</ele>
        <time>2021-07-29T14:31:58Z</time>
      </trkpt>
      <trkpt lat="49.43627" lon="1.10076">
        <ele>3.5</ele>
        <time>2021-07-29T14:32:00Z</time>
      </trkpt>
      <trkpt lat="49.4363" lon="1.10062">
        <ele>2.54</ele>
        <time>2021-07-29T14:32:01Z</time>
      </trkpt>
      <trkpt lat="49.43684" lon="1.09841">
        <ele>2.06</ele>
        <time>2021-07-29T14:32:14Z</time>
      </trkpt>
      <trkpt lat="49.4371" lon="1.09719">
        <ele>2.54</ele>
        <time>2021-07-29T14:32:23Z</time>
      </trkpt>
      <trkpt lat="49.43716" lon="1.09692">
        <ele>3.5</ele>
        <time>2021-07-29T14:32:30Z</time>
      </trkpt>
      <trkpt lat="49.43723" lon="1.09659">
        <ele>3.98</ele>
        <time>2021-07-29T14:33:12Z</time>
      </trkpt>
      <trkpt lat="49.43745" lon="1.0955">
        <ele>3.98</ele>
        <time>2021-07-29T14:33:21Z</time>
      </trkpt>
      <trkpt lat="49.43788" lon="1.09341">
        <ele>2.06</ele>
        <time>2021-07-29T14:33:35Z</time>
      </trkpt>
      <trkpt lat="49.43819" lon="1.09216">
        <ele>3.02</ele>
        <time>2021-07-29T14:33:49Z</time>
      </trkpt>
      <trkpt lat="49.43821" lon="1.09207">
        <ele>3.5</ele>
        <time>2021-07-29T14:33:50Z</time>
      </trkpt>
      <trkpt lat="49.43822" lon="1.09199">
        <ele>3.5</ele>
        <time>2021-07-29T14:33:51Z</time>
      </trkpt>
      <trkpt lat="49.43824" lon="1.09193">
        <ele>3.5</ele>
        <time>2021-07-29T14:33:52Z</time>
      </trkpt>
      <trkpt lat="49.43817" lon="1.09187">
        <ele>3.98</ele>
        <time>2021-07-29T14:33:53Z</time>
      </trkpt>
      <trkpt lat="49.43812" lon="1.09184">
        <ele>3.98</ele>
        <time>2021-07-29T14:33:54Z</time>
      </trkpt>
      <trkpt lat="49.43808" lon="1.09181">
        <ele>4.46</ele>
        <time>2021-07-29T14:33:55Z</time>
      </trkpt>
      <trkpt lat="49.43714" lon="1.09117">
        <ele>8.79</ele>
        <time>2021-07-29T14:34:11Z</time>
      </trkpt>
      <trkpt lat="49.43625" lon="1.09055">
        <ele>8.79</ele>
        <time>2021-07-29T14:34:26Z</time>
      </trkpt>
      <trkpt lat="49.43611" lon="1.09045">
        <ele>9.75</ele>
        <time>2021-07-29T14:34:35Z</time>
      </trkpt>
      <trkpt lat="49.43603" lon="1.09039">
        <ele>10.23</ele>
        <time>2021-07-29T14:35:12Z</time>
      </trkpt>
      <trkpt lat="49.43601" lon="1.09037">
        <ele>10.23</ele>
        <time>2021-07-29T14:35:13Z</time>
      </trkpt>
      <trkpt lat="49.43602" lon="1.09034">
        <ele>10.23</ele>
        <time>2021-07-29T14:35:14Z</time>
      </trkpt>
      <trkpt lat="49.43604" lon="1.09028">
        <ele>10.23</ele>
        <time>2021-07-29T14:35:15Z</time>
      </trkpt>
      <trkpt lat="49.43606" lon="1.09022">
        <ele>10.23</ele>
        <time>2021-07-29T14:35:16Z</time>
      </trkpt>
      <trkpt lat="49.4361" lon="1.09007">
        <ele>9.75</ele>
        <time>2021-07-29T14:35:17Z</time>
      </trkpt>
      <trkpt lat="49.43637" lon="1.0892">
        <ele>7.83</ele>
        <time>2021-07-29T14:35:26Z</time>
      </trkpt>
      <trkpt lat="49.43662" lon="1.08838">
        <ele>7.35</ele>
        <time>2021-07-29T14:35:37Z</time>
      </trkpt>
      <trkpt lat="49.43663" lon="1.08834">
        <ele>7.35</ele>
        <time>2021-07-29T14:35:51Z</time>
      </trkpt>
      <trkpt lat="49.43672" lon="1.08801">
        <ele>7.35</ele>
        <time>2021-07-29T14:36:04Z</time>
      </trkpt>
      <trkpt lat="49.43684" lon="1.08764">
        <ele>7.35</ele>
        <time>2021-07-29T14:36:10Z</time>
      </trkpt>
      <trkpt lat="49.43688" lon="1.08753">
        <ele>7.83</ele>
        <time>2021-07-29T14:36:11Z</time>
      </trkpt>
      <trkpt lat="49.43694" lon="1.08745">
        <ele>7.83</ele>
        <time>2021-07-29T14:36:12Z</time>
      </trkpt>
      <trkpt lat="49.43694" lon="1.08745">
        <ele>7.35</ele>
        <time>2021-07-29T14:36:13Z</time>
      </trkpt>
      <trkpt lat="49.43701" lon="1.08751">
        <ele>7.35</ele>
        <time>2021-07-29T14:36:14Z</time>
      </trkpt>
      <trkpt lat="49.43701" lon="1.08751">
        <ele>7.35</ele>
        <time>2021-07-29T14:36:15Z</time>
      </trkpt>
      <trkpt lat="49.43779" lon="1.08798">
        <ele>9.75</ele>
        <time>2021-07-29T14:36:28Z</time>
      </trkpt>
      <trkpt lat="49.438" lon="1.0881">
        <ele>10.23</ele>
        <time>2021-07-29T14:36:36Z</time>
      </trkpt>
      <trkpt lat="49.43819" lon="1.08821">
        <ele>9.75</ele>
        <time>2021-07-29T14:37:04Z</time>
      </trkpt>
      <trkpt lat="49.43852" lon="1.08841">
        <ele>8.79</ele>
        <time>2021-07-29T14:37:14Z</time>
      </trkpt>
      <trkpt lat="49.43881" lon="1.08857">
        <ele>7.83</ele>
        <time>2021-07-29T14:37:25Z</time>
      </trkpt>
      <trkpt lat="49.43941" lon="1.08893">
        <ele>6.39</ele>
        <time>2021-07-29T14:37:39Z</time>
      </trkpt>
      <trkpt lat="49.43986" lon="1.08921">
        <ele>4.94</ele>
        <time>2021-07-29T14:37:51Z</time>
      </trkpt>
      <trkpt lat="49.43987" lon="1.08922">
        <ele>5.42</ele>
        <time>2021-07-29T14:38:08Z</time>
      </trkpt>
      <trkpt lat="49.44009" lon="1.08936">
        <ele>5.91</ele>
        <time>2021-07-29T14:38:22Z</time>
      </trkpt>
      <trkpt lat="49.44009" lon="1.08936">
        <ele>6.39</ele>
        <time>2021-07-29T14:38:26Z</time>
      </trkpt>
      <trkpt lat="49.44013" lon="1.08939">
        <ele>6.39</ele>
        <time>2021-07-29T14:38:27Z</time>
      </trkpt>
      <trkpt lat="49.44026" lon="1.08949">
        <ele>6.39</ele>
        <time>2021-07-29T14:38:31Z</time>
      </trkpt>
      <trkpt lat="49.4411" lon="1.09001">
        <ele>6.87</ele>
        <time>2021-07-29T14:38:44Z</time>
      </trkpt>
      <trkpt lat="49.44158" lon="1.09029">
        <ele>5.91</ele>
        <time>2021-07-29T14:38:55Z</time>
      </trkpt>
      <trkpt lat="49.44171" lon="1.09036">
        <ele>6.87</ele>
        <time>2021-07-29T14:39:14Z</time>
      </trkpt>
      <trkpt lat="49.44179" lon="1.09041">
        <ele>7.35</ele>
        <time>2021-07-29T14:39:16Z</time>
      </trkpt>
      <trkpt lat="49.44183" lon="1.09044">
        <ele>7.35</ele>
        <time>2021-07-29T14:39:17Z</time>
      </trkpt>
      <trkpt lat="49.44211" lon="1.0906">
        <ele>6.39</ele>
        <time>2021-07-29T14:39:22Z</time>
      </trkpt>
      <trkpt lat="49.4422" lon="1.09066">
        <ele>5.91</ele>
        <time>2021-07-29T14:39:24Z</time>
      </trkpt>
      <trkpt lat="49.44225" lon="1.09069">
        <ele>6.39</ele>
        <time>2021-07-29T14:39:25Z</time>
      </trkpt>
      <trkpt lat="49.44234" lon="1.09074">
        <ele>6.87</ele>
        <time>2021-07-29T14:39:27Z</time>
      </trkpt>
    </trkseg>
  </trk>
</gpx>